Observation data for Smyer on 06/23/2019      Previous  Date       Current Mesonet Observations  Soil Data  Daily Summary Page  Observations in Plain Language
KSM2 230500Z 17016G21KT 27/19 A2986 RMK A01 T02700192  RH  062%=      5-min Rain = 0
KSM2 230501Z 17014G20KT 27/19 A2986 RMK A01 T02700192  RH  062%=      5-min Rain = 0
KSM2 230502Z 18014G20KT 27/19 A2986 RMK A01 T02700192  RH  063%=      5-min Rain = 0
KSM2 230503Z 18013G18KT 27/19 A2986 RMK A01 T02690192  RH  063%=      5-min Rain = 0
KSM2 230504Z 18017G22KT 27/19 A2986 RMK A01 T02690192  RH  063%=      5-min Rain = 0
KSM2 230505Z 17015G20KT 27/19 A2986 RMK A01 T02680192  RH  063%=      5-min Rain = 0
KSM2 230506Z 17014G20KT 27/19 A2986 RMK A01 T02690192  RH  063%=      5-min Rain = 0
KSM2 230507Z 18013KT 27/19 A2986 RMK A01 T02680192  RH  063%=      5-min Rain = 0
KSM2 230508Z 18016KT 27/19 A2986 RMK A01 T02670192  RH  063%=      5-min Rain = 0
KSM2 230509Z 17016KT 27/19 A2986 RMK A01 T02670191  RH  063%=      5-min Rain = 0
KSM2 230510Z 18019KT 27/19 A2986 RMK A01 T02680192  RH  063%=      5-min Rain = 0
KSM2 230511Z 18015G22KT 27/19 A2986 RMK A01 T02680192  RH  063%=      5-min Rain = 0
KSM2 230512Z 18017KT 27/19 A2986 RMK A01 T02680192  RH  063%=      5-min Rain = 0
KSM2 230513Z 17012G17KT 27/19 A2986 RMK A01 T02670191  RH  063%=      5-min Rain = 0
KSM2 230514Z 18015KT 27/19 A2986 RMK A01 T02670192  RH  063%=      5-min Rain = 0
KSM2 230515Z 18017G23KT 27/19 A2986 RMK A01 T02660191  RH  063%=      5-min Rain = 0
KSM2 230516Z 18016KT 27/19 A2986 RMK A01 T02660191  RH  063%=      5-min Rain = 0
KSM2 230517Z 18019KT 27/19 A2987 RMK A01 T02660191  RH  063%=      5-min Rain = 0
KSM2 230518Z 18015G20KT 27/19 A2987 RMK A01 T02660191  RH  063%=      5-min Rain = 0
KSM2 230519Z 18016G21KT 27/19 A2987 RMK A01 T02660191  RH  063%=      5-min Rain = 0
KSM2 230520Z 18017KT 27/19 A2986 RMK A01 T02660191  RH  063%=      5-min Rain = 0
KSM2 230521Z 18013KT 27/19 A2986 RMK A01 T02660191  RH  064%=      5-min Rain = 0
KSM2 230522Z 18016G21KT 27/19 A2986 RMK A01 T02650191  RH  064%=      5-min Rain = 0
KSM2 230523Z 18016G21KT 26/19 A2987 RMK A01 T02640191  RH  064%=      5-min Rain = 0
KSM2 230524Z 18016G23KT 26/19 A2987 RMK A01 T02640191  RH  064%=      5-min Rain = 0
KSM2 230525Z 18019KT 27/19 A2987 RMK A01 T02650191  RH  064%=      5-min Rain = 0
KSM2 230526Z 18016G23KT 27/19 A2987 RMK A01 T02650191  RH  064%=      5-min Rain = 0
KSM2 230527Z 18015G21KT 27/19 A2987 RMK A01 T02650191  RH  064%=      5-min Rain = 0
KSM2 230528Z 18016G21KT 27/19 A2987 RMK A01 T02650191  RH  064%=      5-min Rain = 0
KSM2 230529Z 18014KT 27/19 A2987 RMK A01 T02650191  RH  064%=      5-min Rain = 0
KSM2 230530Z 18014G19KT 26/19 A2987 RMK A01 T02640191  RH  064%=      5-min Rain = 0
KSM2 230531Z 18016KT 26/19 A2987 RMK A01 T02630191  RH  064%=      5-min Rain = 0
KSM2 230532Z 19015G20KT 26/19 A2987 RMK A01 T02630191  RH  064%=      5-min Rain = 0
KSM2 230533Z 18013KT 26/19 A2987 RMK A01 T02630190  RH  064%=      5-min Rain = 0
KSM2 230534Z 18013KT 26/19 A2987 RMK A01 T02620191  RH  065%=      5-min Rain = 0
KSM2 230535Z 19015KT 26/19 A2987 RMK A01 T02620191  RH  065%=      5-min Rain = 0
KSM2 230536Z 18015KT 26/19 A2987 RMK A01 T02620191  RH  065%=      5-min Rain = 0
KSM2 230537Z 19015KT 26/19 A2987 RMK A01 T02620191  RH  065%=      5-min Rain = 0
KSM2 230538Z 18015KT 26/19 A2987 RMK A01 T02620190  RH  065%=      5-min Rain = 0
KSM2 230539Z 18014G19KT 26/19 A2987 RMK A01 T02620191  RH  065%=      5-min Rain = 0
KSM2 230540Z 19013KT 26/19 A2987 RMK A01 T02620191  RH  065%=      5-min Rain = 0
KSM2 230541Z 18015KT 26/19 A2987 RMK A01 T02610191  RH  065%=      5-min Rain = 0
KSM2 230542Z 18013G18KT 26/19 A2987 RMK A01 T02610191  RH  065%=      5-min Rain = 0
KSM2 230543Z 18012KT 26/19 A2987 RMK A01 T02610190  RH  065%=      5-min Rain = 0
KSM2 230544Z 18013KT 26/19 A2987 RMK A01 T02600191  RH  065%=      5-min Rain = 0
KSM2 230545Z 18010KT 26/19 A2987 RMK A01 T02600191  RH  066%=      5-min Rain = 0
KSM2 230546Z 19011KT 26/19 A2987 RMK A01 T02590191  RH  066%=      5-min Rain = 0
KSM2 230547Z 18012KT 26/19 A2987 RMK A01 T02590191  RH  066%=      5-min Rain = 0
KSM2 230548Z 18015KT 26/19 A2987 RMK A01 T02590191  RH  066%=      5-min Rain = 0
KSM2 230549Z 17011KT 26/19 A2987 RMK A01 T02590191  RH  066%=      5-min Rain = 0
KSM2 230550Z 18013KT 26/19 A2987 RMK A01 T02590191  RH  066%=      5-min Rain = 0
KSM2 230551Z 19012KT 26/19 A2987 RMK A01 T02590191  RH  066%=      5-min Rain = 0
KSM2 230552Z 18009KT 26/19 A2987 RMK A01 T02580191  RH  066%=      5-min Rain = 0
KSM2 230553Z 18011KT 26/19 A2987 RMK A01 T02570191  RH  067%=      5-min Rain = 0
KSM2 230554Z 18012KT 26/19 A2987 RMK A01 T02570191  RH  067%=      5-min Rain = 0
KSM2 230555Z 18012KT 26/19 A2987 RMK A01 T02570191  RH  067%=      5-min Rain = 0
KSM2 230556Z 19013KT 26/19 A2987 RMK A01 T02570191  RH  067%=      5-min Rain = 0
KSM2 230557Z 18011KT 26/19 A2987 RMK A01 T02570191  RH  067%=      5-min Rain = 0
KSM2 230558Z 18012KT 26/19 A2987 RMK A01 T02570191  RH  067%=      5-min Rain = 0
KSM2 230559Z 18011KT 26/19 A2987 RMK A01 T02570191  RH  067%=      5-min Rain = 0
KSM2 230600Z 19011KT 26/19 A2987 RMK A01 T02560191  RH  067%=      5-min Rain = 0
KSM2 230601Z 18011G17KT 26/19 A2987 RMK A01 T02560191  RH  067%=      5-min Rain = 0
KSM2 230602Z 19012KT 26/19 A2987 RMK A01 T02550191  RH  067%=      5-min Rain = 0
KSM2 230603Z 19015KT 26/19 A2987 RMK A01 T02550191  RH  067%=      5-min Rain = 0
KSM2 230604Z 18013KT 26/19 A2987 RMK A01 T02550191  RH  067%=      5-min Rain = 0
KSM2 230605Z 19013G18KT 26/19 A2987 RMK A01 T02560191  RH  067%=      5-min Rain = 0
KSM2 230606Z 19015G20KT 26/19 A2987 RMK A01 T02560191  RH  067%=      5-min Rain = 0
KSM2 230607Z 18014KT 26/19 A2987 RMK A01 T02560191  RH  067%=      5-min Rain = 0
KSM2 230608Z 19014KT 26/19 A2987 RMK A01 T02560191  RH  067%=      5-min Rain = 0
KSM2 230609Z 19013KT 26/19 A2987 RMK A01 T02560191  RH  067%=      5-min Rain = 0
KSM2 230610Z 19014KT 26/19 A2987 RMK A01 T02560191  RH  067%=      5-min Rain = 0
KSM2 230611Z 19014KT 26/19 A2987 RMK A01 T02560191  RH  067%=      5-min Rain = 0
KSM2 230612Z 19013KT 26/19 A2987 RMK A01 T02560191  RH  067%=      5-min Rain = 0
KSM2 230613Z 19014KT 26/19 A2987 RMK A01 T02560191  RH  067%=      5-min Rain = 0
KSM2 230614Z 18015G20KT 26/19 A2987 RMK A01 T02560191  RH  068%=      5-min Rain = 0
KSM2 230615Z 19012G17KT 26/19 A2987 RMK A01 T02550191  RH  067%=      5-min Rain = 0
KSM2 230616Z 19013KT 26/19 A2987 RMK A01 T02550191  RH  068%=      5-min Rain = 0
KSM2 230617Z 19014KT 25/19 A2987 RMK A01 T02540191  RH  068%=      5-min Rain = 0
KSM2 230618Z 19013KT 25/19 A2987 RMK A01 T02540191  RH  068%=      5-min Rain = 0
KSM2 230619Z 19014KT 25/19 A2987 RMK A01 T02540191  RH  068%=      5-min Rain = 0
KSM2 230620Z 19012KT 25/19 A2987 RMK A01 T02540191  RH  068%=      5-min Rain = 0
KSM2 230621Z 19013KT 25/19 A2987 RMK A01 T02540191  RH  068%=      5-min Rain = 0
KSM2 230622Z 19013KT 25/19 A2987 RMK A01 T02530191  RH  068%=      5-min Rain = 0
KSM2 230623Z 19014KT 25/19 A2987 RMK A01 T02540191  RH  068%=      5-min Rain = 0
KSM2 230624Z 19013KT 25/19 A2987 RMK A01 T02540192  RH  068%=      5-min Rain = 0
KSM2 230625Z 19014KT 25/19 A2987 RMK A01 T02530191  RH  068%=      5-min Rain = 0
KSM2 230626Z 19013KT 25/19 A2987 RMK A01 T02530191  RH  069%=      5-min Rain = 0
KSM2 230627Z 19013KT 25/19 A2987 RMK A01 T02520191  RH  069%=      5-min Rain = 0
KSM2 230628Z 19013KT 25/19 A2986 RMK A01 T02520191  RH  069%=      5-min Rain = 0
KSM2 230629Z 19014KT 25/19 A2986 RMK A01 T02510191  RH  069%=      5-min Rain = 0
KSM2 230630Z 19015KT 25/19 A2986 RMK A01 T02510191  RH  069%=      5-min Rain = 0
KSM2 230631Z 19013KT 25/19 A2986 RMK A01 T02510191  RH  069%=      5-min Rain = 0
KSM2 230632Z 19012G17KT 25/19 A2986 RMK A01 T02510191  RH  069%=      5-min Rain = 0
KSM2 230633Z 19013KT 25/19 A2986 RMK A01 T02520192  RH  070%=      5-min Rain = 0
KSM2 230634Z 19013KT 25/19 A2986 RMK A01 T02510192  RH  070%=      5-min Rain = 0
KSM2 230635Z 19014KT 25/19 A2986 RMK A01 T02510192  RH  070%=      5-min Rain = 0
KSM2 230636Z 19012KT 25/19 A2986 RMK A01 T02510192  RH  070%=      5-min Rain = 0
KSM2 230637Z 19011KT 25/19 A2986 RMK A01 T02510192  RH  070%=      5-min Rain = 0
KSM2 230638Z 19012KT 25/19 A2986 RMK A01 T02500192  RH  070%=      5-min Rain = 0
KSM2 230639Z 19012KT 25/19 A2986 RMK A01 T02500192  RH  070%=      5-min Rain = 0
KSM2 230640Z 18011KT 25/19 A2986 RMK A01 T02490192  RH  070%=      5-min Rain = 0
KSM2 230641Z 18012KT 25/19 A2986 RMK A01 T02490192  RH  071%=      5-min Rain = 0
KSM2 230642Z 18010KT 25/19 A2986 RMK A01 T02490192  RH  071%=      5-min Rain = 0
KSM2 230643Z 18012KT 25/19 A2986 RMK A01 T02480192  RH  071%=      5-min Rain = 0
KSM2 230644Z 19011KT 25/19 A2986 RMK A01 T02480191  RH  071%=      5-min Rain = 0
KSM2 230645Z 18011KT 25/19 A2986 RMK A01 T02480191  RH  071%=      5-min Rain = 0
KSM2 230646Z 18009KT 25/19 A2986 RMK A01 T02480191  RH  071%=      5-min Rain = 0
KSM2 230647Z 18011KT 25/19 A2986 RMK A01 T02470191  RH  071%=      5-min Rain = 0
KSM2 230648Z 18010KT 25/19 A2986 RMK A01 T02470192  RH  071%=      5-min Rain = 0
KSM2 230649Z 18010KT 25/19 A2986 RMK A01 T02460192  RH  072%=      5-min Rain = 0
KSM2 230650Z 19011KT 25/19 A2986 RMK A01 T02460192  RH  072%=      5-min Rain = 0
KSM2 230651Z 18011KT 25/19 A2986 RMK A01 T02450192  RH  072%=      5-min Rain = 0
KSM2 230652Z 18013KT 25/19 A2986 RMK A01 T02450192  RH  072%=      5-min Rain = 0
KSM2 230653Z 18013KT 25/19 A2986 RMK A01 T02450192  RH  072%=      5-min Rain = 0
KSM2 230654Z 19011G16KT 25/19 A2986 RMK A01 T02460193  RH  072%=      5-min Rain = 0
KSM2 230655Z 19013KT 25/19 A2986 RMK A01 T02460193  RH  072%=      5-min Rain = 0
KSM2 230656Z 19012KT 25/19 A2986 RMK A01 T02460193  RH  072%=      5-min Rain = 0
KSM2 230657Z 18010KT 25/19 A2986 RMK A01 T02460193  RH  072%=      5-min Rain = 0
KSM2 230658Z 18010KT 25/19 A2986 RMK A01 T02460193  RH  072%=      5-min Rain = 0
KSM2 230659Z 19012KT 25/19 A2986 RMK A01 T02460194  RH  073%=      5-min Rain = 0
KSM2 230700Z 18012KT 25/19 A2986 RMK A01 T02450194  RH  073%=      5-min Rain = 0
KSM2 230701Z 19011G16KT 25/19 A2986 RMK A01 T02450194  RH  073%=      5-min Rain = 0
KSM2 230702Z 19012KT 25/19 A2986 RMK A01 T02450194  RH  073%=      5-min Rain = 0
KSM2 230703Z 18011KT 25/19 A2986 RMK A01 T02450194  RH  073%=      5-min Rain = 0
KSM2 230704Z 19012KT 25/20 A2986 RMK A01 T02450195  RH  073%=      5-min Rain = 0
KSM2 230705Z 18012KT 25/20 A2986 RMK A01 T02450195  RH  073%=      5-min Rain = 0
KSM2 230706Z 19012KT 25/20 A2986 RMK A01 T02450195  RH  073%=      5-min Rain = 0
KSM2 230707Z 19011KT 25/20 A2986 RMK A01 T02450195  RH  074%=      5-min Rain = 0
KSM2 230708Z 18012KT 25/20 A2986 RMK A01 T02450196  RH  074%=      5-min Rain = 0
KSM2 230709Z 18013KT 25/20 A2986 RMK A01 T02450195  RH  074%=      5-min Rain = 0
KSM2 230710Z 18013KT 25/20 A2986 RMK A01 T02450195  RH  074%=      5-min Rain = 0
KSM2 230711Z 18012KT 25/20 A2986 RMK A01 T02450196  RH  074%=      5-min Rain = 0
KSM2 230712Z 19012KT 25/20 A2986 RMK A01 T02450196  RH  074%=      5-min Rain = 0
KSM2 230713Z 18010KT 24/20 A2986 RMK A01 T02440196  RH  074%=      5-min Rain = 0
KSM2 230714Z 18010KT 24/20 A2986 RMK A01 T02440196  RH  075%=      5-min Rain = 0
KSM2 230715Z 18011KT 24/20 A2986 RMK A01 T02440196  RH  075%=      5-min Rain = 0
KSM2 230716Z 18011KT 24/20 A2986 RMK A01 T02430196  RH  075%=      5-min Rain = 0
KSM2 230717Z 18012KT 24/20 A2986 RMK A01 T02430196  RH  075%=      5-min Rain = 0
KSM2 230718Z 18010KT 24/20 A2986 RMK A01 T02440196  RH  075%=      5-min Rain = 0
KSM2 230719Z 18011KT 24/20 A2986 RMK A01 T02430196  RH  075%=      5-min Rain = 0
KSM2 230720Z 18010KT 24/20 A2986 RMK A01 T02440197  RH  075%=      5-min Rain = 0
KSM2 230721Z 18010KT 24/20 A2986 RMK A01 T02430196  RH  075%=      5-min Rain = 0
KSM2 230722Z 18009KT 24/20 A2986 RMK A01 T02430197  RH  075%=      5-min Rain = 0
KSM2 230723Z 18011KT 24/20 A2986 RMK A01 T02430197  RH  076%=      5-min Rain = 0
KSM2 230724Z 18012KT 24/20 A2986 RMK A01 T02420197  RH  076%=      5-min Rain = 0
KSM2 230725Z 18010KT 24/20 A2986 RMK A01 T02420197  RH  076%=      5-min Rain = 0
KSM2 230726Z 18010KT 24/20 A2986 RMK A01 T02420197  RH  076%=      5-min Rain = 0
KSM2 230727Z 18011KT 24/20 A2986 RMK A01 T02420197  RH  076%=      5-min Rain = 0
KSM2 230728Z 18011KT 24/20 A2986 RMK A01 T02420197  RH  076%=      5-min Rain = 0
KSM2 230729Z 18011KT 24/20 A2986 RMK A01 T02420197  RH  076%=      5-min Rain = 0
KSM2 230730Z 18010KT 24/20 A2986 RMK A01 T02410197  RH  076%=      5-min Rain = 0
KSM2 230731Z 18011KT 24/20 A2986 RMK A01 T02410198  RH  077%=      5-min Rain = 0
KSM2 230732Z 18012KT 24/20 A2986 RMK A01 T02410197  RH  077%=      5-min Rain = 0
KSM2 230733Z 18011KT 24/20 A2986 RMK A01 T02410197  RH  077%=      5-min Rain = 0
KSM2 230734Z 18010KT 24/20 A2986 RMK A01 T02410198  RH  077%=      5-min Rain = 0
KSM2 230735Z 18011KT 24/20 A2986 RMK A01 T02410198  RH  077%=      5-min Rain = 0
KSM2 230736Z 18012KT 24/20 A2986 RMK A01 T02410198  RH  077%=      5-min Rain = 0
KSM2 230737Z 18012KT 24/20 A2986 RMK A01 T02410198  RH  077%=      5-min Rain = 0
KSM2 230738Z 18012KT 24/20 A2986 RMK A01 T02410198  RH  077%=      5-min Rain = 0
KSM2 230739Z 18012KT 24/20 A2986 RMK A01 T02410198  RH  077%=      5-min Rain = 0
KSM2 230740Z 19012KT 24/20 A2986 RMK A01 T02400198  RH  077%=      5-min Rain = 0
KSM2 230741Z 18010KT 24/20 A2986 RMK A01 T02400198  RH  077%=      5-min Rain = 0
KSM2 230742Z 19012KT 24/20 A2986 RMK A01 T02390198  RH  078%=      5-min Rain = 0
KSM2 230743Z 18012KT 24/20 A2986 RMK A01 T02390198  RH  078%=      5-min Rain = 0
KSM2 230744Z 19012KT 24/20 A2986 RMK A01 T02390198  RH  078%=      5-min Rain = 0
KSM2 230745Z 19011KT 24/20 A2986 RMK A01 T02390198  RH  078%=      5-min Rain = 0
KSM2 230746Z 19012KT 24/20 A2986 RMK A01 T02390198  RH  078%=      5-min Rain = 0
KSM2 230747Z 18010KT 24/20 A2986 RMK A01 T02390199  RH  078%=      5-min Rain = 0
KSM2 230748Z 19012KT 24/20 A2986 RMK A01 T02390198  RH  078%=      5-min Rain = 0
KSM2 230749Z 18010KT 24/20 A2986 RMK A01 T02390198  RH  078%=      5-min Rain = 0
KSM2 230750Z 18011KT 24/20 A2986 RMK A01 T02390198  RH  078%=      5-min Rain = 0
KSM2 230751Z 18010KT 24/20 A2986 RMK A01 T02390199  RH  078%=      5-min Rain = 0
KSM2 230752Z 18011KT 24/20 A2986 RMK A01 T02380199  RH  078%=      5-min Rain = 0
KSM2 230753Z 18011KT 24/20 A2986 RMK A01 T02380199  RH  079%=      5-min Rain = 0
KSM2 230754Z 19011KT 24/20 A2986 RMK A01 T02370198  RH  079%=      5-min Rain = 0
KSM2 230755Z 18011KT 24/20 A2986 RMK A01 T02370198  RH  079%=      5-min Rain = 0
KSM2 230756Z 18012KT 24/20 A2986 RMK A01 T02380199  RH  079%=      5-min Rain = 0
KSM2 230757Z 19010KT 24/20 A2986 RMK A01 T02370199  RH  079%=      5-min Rain = 0
KSM2 230758Z 19012KT 24/20 A2986 RMK A01 T02370199  RH  079%=      5-min Rain = 0
KSM2 230759Z 18012KT 24/20 A2985 RMK A01 T02370199  RH  079%=      5-min Rain = 0
KSM2 230800Z 18011KT 24/20 A2985 RMK A01 T02370199  RH  079%=      5-min Rain = 0
KSM2 230801Z 18012KT 24/20 A2985 RMK A01 T02370199  RH  079%=      5-min Rain = 0
KSM2 230802Z 19012KT 24/20 A2985 RMK A01 T02360199  RH  079%=      5-min Rain = 0
KSM2 230803Z 18012KT 24/20 A2985 RMK A01 T02360199  RH  079%=      5-min Rain = 0
KSM2 230804Z 19012KT 24/20 A2985 RMK A01 T02360199  RH  079%=      5-min Rain = 0
KSM2 230805Z 19011KT 24/20 A2985 RMK A01 T02360199  RH  079%=      5-min Rain = 0
KSM2 230806Z 19012KT 24/20 A2985 RMK A01 T02360199  RH  080%=      5-min Rain = 0
KSM2 230807Z 19011KT 24/20 A2985 RMK A01 T02360199  RH  080%=      5-min Rain = 0
KSM2 230808Z 19013KT 24/20 A2985 RMK A01 T02350199  RH  080%=      5-min Rain = 0
KSM2 230809Z 19013KT 24/20 A2985 RMK A01 T02350199  RH  080%=      5-min Rain = 0
KSM2 230810Z 19011KT 24/20 A2985 RMK A01 T02350199  RH  080%=      5-min Rain = 0
KSM2 230811Z 19012KT 24/20 A2985 RMK A01 T02350199  RH  080%=      5-min Rain = 0
KSM2 230812Z 19013KT 24/20 A2985 RMK A01 T02350199  RH  080%=      5-min Rain = 0
KSM2 230813Z 19013KT 24/20 A2985 RMK A01 T02350199  RH  080%=      5-min Rain = 0
KSM2 230814Z 19011KT 24/20 A2985 RMK A01 T02360199  RH  080%=      5-min Rain = 0
KSM2 230815Z 19014KT 24/20 A2985 RMK A01 T02360199  RH  080%=      5-min Rain = 0
KSM2 230816Z 19013KT 24/20 A2985 RMK A01 T02360199  RH  080%=      5-min Rain = 0
KSM2 230817Z 19012KT 24/20 A2985 RMK A01 T02360199  RH  080%=      5-min Rain = 0
KSM2 230818Z 19012KT 24/20 A2985 RMK A01 T02360199  RH  080%=      5-min Rain = 0
KSM2 230819Z 19011KT 24/20 A2985 RMK A01 T02350199  RH  080%=      5-min Rain = 0
KSM2 230820Z 19012KT 24/20 A2985 RMK A01 T02350199  RH  080%=      5-min Rain = 0
KSM2 230821Z 19011KT 24/20 A2985 RMK A01 T02350199  RH  080%=      5-min Rain = 0
KSM2 230822Z 19010KT 24/20 A2985 RMK A01 T02350199  RH  080%=      5-min Rain = 0
KSM2 230823Z 19012KT 24/20 A2985 RMK A01 T02350199  RH  080%=      5-min Rain = 0
KSM2 230824Z 19010KT 24/20 A2985 RMK A01 T02350199  RH  080%=      5-min Rain = 0
KSM2 230825Z 19011KT 23/20 A2985 RMK A01 T02340199  RH  081%=      5-min Rain = 0
KSM2 230826Z 19010KT 23/20 A2985 RMK A01 T02340199  RH  081%=      5-min Rain = 0
KSM2 230827Z 18011KT 23/20 A2985 RMK A01 T02340199  RH  081%=      5-min Rain = 0
KSM2 230828Z 19010KT 23/20 A2985 RMK A01 T02340199  RH  081%=      5-min Rain = 0
KSM2 230829Z 18011KT 23/20 A2985 RMK A01 T02330199  RH  081%=      5-min Rain = 0
KSM2 230830Z 18011KT 23/20 A2986 RMK A01 T02340199  RH  081%=      5-min Rain = 0
KSM2 230831Z 18009KT 23/20 A2986 RMK A01 T02330199  RH  081%=      5-min Rain = 0
KSM2 230832Z 18009KT 23/20 A2986 RMK A01 T02340199  RH  081%=      5-min Rain = 0
KSM2 230833Z 18009KT 23/20 A2986 RMK A01 T02330199  RH  081%=      5-min Rain = 0
KSM2 230834Z 18010KT 23/20 A2986 RMK A01 T02330199  RH  081%=      5-min Rain = 0
KSM2 230835Z 18009KT 23/20 A2986 RMK A01 T02330199  RH  082%=      5-min Rain = 0
KSM2 230836Z 18010KT 23/20 A2986 RMK A01 T02320199  RH  082%=      5-min Rain = 0
KSM2 230837Z 18010KT 23/20 A2986 RMK A01 T02320199  RH  082%=      5-min Rain = 0
KSM2 230838Z 18010KT 23/20 A2985 RMK A01 T02320199  RH  082%=      5-min Rain = 0
KSM2 230839Z 19008KT 23/20 A2985 RMK A01 T02320199  RH  082%=      5-min Rain = 0
KSM2 230840Z 18009KT 23/20 A2985 RMK A01 T02320199  RH  082%=      5-min Rain = 0
KSM2 230841Z 18010KT 23/20 A2985 RMK A01 T02320199  RH  082%=      5-min Rain = 0
KSM2 230842Z 18010KT 23/20 A2985 RMK A01 T02320199  RH  082%=      5-min Rain = 0
KSM2 230843Z 19009KT 23/20 A2985 RMK A01 T02320199  RH  082%=      5-min Rain = 0
KSM2 230844Z 18011KT 23/20 A2985 RMK A01 T02310199  RH  082%=      5-min Rain = 0
KSM2 230845Z 18011KT 23/20 A2985 RMK A01 T02310199  RH  082%=      5-min Rain = 0
KSM2 230846Z 19011KT 23/20 A2985 RMK A01 T02310199  RH  082%=      5-min Rain = 0
KSM2 230847Z 18009KT 23/20 A2985 RMK A01 T02310199  RH  082%=      5-min Rain = 0
KSM2 230848Z 18009KT 23/20 A2985 RMK A01 T02310199  RH  082%=      5-min Rain = 0
KSM2 230849Z 18011KT 23/20 A2985 RMK A01 T02310199  RH  082%=      5-min Rain = 0
KSM2 230850Z 18011KT 23/20 A2985 RMK A01 T02310199  RH  082%=      5-min Rain = 0
KSM2 230851Z 18009KT 23/20 A2985 RMK A01 T02310199  RH  082%=      5-min Rain = 0
KSM2 230852Z 18010KT 23/20 A2985 RMK A01 T02310199  RH  082%=      5-min Rain = 0
KSM2 230853Z 18010KT 23/20 A2985 RMK A01 T02310199  RH  082%=      5-min Rain = 0
KSM2 230854Z 18010KT 23/20 A2985 RMK A01 T02310199  RH  082%=      5-min Rain = 0
KSM2 230855Z 18009KT 23/20 A2985 RMK A01 T02310199  RH  082%=      5-min Rain = 0
KSM2 230856Z 18009KT 23/20 A2986 RMK A01 T02300199  RH  082%=      5-min Rain = 0
KSM2 230857Z 18010KT 23/20 A2986 RMK A01 T02300199  RH  082%=      5-min Rain = 0
KSM2 230858Z 18008KT 23/20 A2986 RMK A01 T02300199  RH  083%=      5-min Rain = 0
KSM2 230859Z 18009G14KT 23/20 A2986 RMK A01 T02290198  RH  083%=      5-min Rain = 0
KSM2 230900Z 18011KT 23/20 A2986 RMK A01 T02290199  RH  083%=      5-min Rain = 0
KSM2 230901Z 19009KT 23/20 A2986 RMK A01 T02290198  RH  083%=      5-min Rain = 0
KSM2 230902Z 19011KT 23/20 A2986 RMK A01 T02290198  RH  083%=      5-min Rain = 0
KSM2 230903Z 19010KT 23/20 A2986 RMK A01 T02290198  RH  083%=      5-min Rain = 0
KSM2 230904Z 18011KT 23/20 A2986 RMK A01 T02290199  RH  083%=      5-min Rain = 0
KSM2 230905Z 19011KT 23/20 A2986 RMK A01 T02290198  RH  083%=      5-min Rain = 0
KSM2 230906Z 19011KT 23/20 A2986 RMK A01 T02290198  RH  083%=      5-min Rain = 0
KSM2 230907Z 18009KT 23/20 A2986 RMK A01 T02290198  RH  083%=      5-min Rain = 0
KSM2 230908Z 18010KT 23/20 A2985 RMK A01 T02290198  RH  083%=      5-min Rain = 0
KSM2 230909Z 18011KT 23/20 A2985 RMK A01 T02290198  RH  083%=      5-min Rain = 0
KSM2 230910Z 19010KT 23/20 A2985 RMK A01 T02290198  RH  083%=      5-min Rain = 0
KSM2 230911Z 19012KT 23/20 A2985 RMK A01 T02280198  RH  083%=      5-min Rain = 0
KSM2 230912Z 19011KT 23/20 A2985 RMK A01 T02290198  RH  083%=      5-min Rain = 0
KSM2 230913Z 19011KT 23/20 A2985 RMK A01 T02290198  RH  083%=      5-min Rain = 0
KSM2 230914Z 19014KT 23/20 A2986 RMK A01 T02290198  RH  083%=      5-min Rain = 0
KSM2 230915Z 19013KT 23/20 A2986 RMK A01 T02290198  RH  083%=      5-min Rain = 0
KSM2 230916Z 19014KT 23/20 A2986 RMK A01 T02290198  RH  082%=      5-min Rain = 0
KSM2 230917Z 19013KT 23/20 A2986 RMK A01 T02290198  RH  082%=      5-min Rain = 0
KSM2 230918Z 19014KT 23/20 A2986 RMK A01 T02300198  RH  082%=      5-min Rain = 0
KSM2 230919Z 19012KT 23/20 A2986 RMK A01 T02300198  RH  082%=      5-min Rain = 0
KSM2 230920Z 19011KT 23/20 A2986 RMK A01 T02290198  RH  082%=      5-min Rain = 0
KSM2 230921Z 19013KT 23/20 A2986 RMK A01 T02290198  RH  082%=      5-min Rain = 0
KSM2 230922Z 19013KT 23/20 A2986 RMK A01 T02300198  RH  083%=      5-min Rain = 0
KSM2 230923Z 19012KT 23/20 A2986 RMK A01 T02300198  RH  083%=      5-min Rain = 0
KSM2 230924Z 19013KT 23/20 A2986 RMK A01 T02290198  RH  083%=      5-min Rain = 0
KSM2 230925Z 19013KT 23/20 A2986 RMK A01 T02290198  RH  083%=      5-min Rain = 0
KSM2 230926Z 19014KT 23/20 A2986 RMK A01 T02290198  RH  083%=      5-min Rain = 0
KSM2 230927Z 19015KT 23/20 A2986 RMK A01 T02290198  RH  083%=      5-min Rain = 0
KSM2 230928Z 19013KT 23/20 A2986 RMK A01 T02290198  RH  083%=      5-min Rain = 0
KSM2 230929Z 19012KT 23/20 A2986 RMK A01 T02290198  RH  083%=      5-min Rain = 0
KSM2 230930Z 19012KT 23/20 A2986 RMK A01 T02280198  RH  083%=      5-min Rain = 0
KSM2 230931Z 19014KT 23/20 A2986 RMK A01 T02280197  RH  083%=      5-min Rain = 0
KSM2 230932Z 19013KT 23/20 A2986 RMK A01 T02280198  RH  083%=      5-min Rain = 0
KSM2 230933Z 19013KT 23/20 A2986 RMK A01 T02280198  RH  083%=      5-min Rain = 0
KSM2 230934Z 19012KT 23/20 A2986 RMK A01 T02280197  RH  083%=      5-min Rain = 0
KSM2 230935Z 19013KT 23/20 A2986 RMK A01 T02280197  RH  083%=      5-min Rain = 0
KSM2 230936Z 19013KT 23/20 A2986 RMK A01 T02280197  RH  083%=      5-min Rain = 0
KSM2 230937Z 19013KT 23/20 A2986 RMK A01 T02280198  RH  083%=      5-min Rain = 0
KSM2 230938Z 19013KT 23/20 A2986 RMK A01 T02280197  RH  083%=      5-min Rain = 0
KSM2 230939Z 20011KT 23/20 A2986 RMK A01 T02270197  RH  083%=      5-min Rain = 0
KSM2 230940Z 20014KT 23/20 A2986 RMK A01 T02270197  RH  083%=      5-min Rain = 0
KSM2 230941Z 19013KT 23/20 A2986 RMK A01 T02270197  RH  083%=      5-min Rain = 0
KSM2 230942Z 20012KT 23/20 A2986 RMK A01 T02270197  RH  083%=      5-min Rain = 0
KSM2 230943Z 20011KT 23/20 A2986 RMK A01 T02270197  RH  083%=      5-min Rain = 0
KSM2 230944Z 20009KT 23/20 A2987 RMK A01 T02270197  RH  083%=      5-min Rain = 0
KSM2 230945Z 20011KT 23/20 A2987 RMK A01 T02260197  RH  083%=      5-min Rain = 0
KSM2 230946Z 20010KT 23/20 A2987 RMK A01 T02260197  RH  084%=      5-min Rain = 0
KSM2 230947Z 20011KT 23/20 A2987 RMK A01 T02260197  RH  084%=      5-min Rain = 0
KSM2 230948Z 21011KT 23/20 A2987 RMK A01 T02260197  RH  084%=      5-min Rain = 0
KSM2 230949Z 20011KT 23/20 A2987 RMK A01 T02260197  RH  084%=      5-min Rain = 0
KSM2 230950Z 20010KT 23/20 A2987 RMK A01 T02260197  RH  084%=      5-min Rain = 0
KSM2 230951Z 21012KT 23/20 A2987 RMK A01 T02260197  RH  084%=      5-min Rain = 0
KSM2 230952Z 21013KT 23/20 A2987 RMK A01 T02260197  RH  084%=      5-min Rain = 0
KSM2 230953Z 21013KT 23/20 A2987 RMK A01 T02260197  RH  084%=      5-min Rain = 0
KSM2 230954Z 21013KT 23/20 A2987 RMK A01 T02260197  RH  084%=      5-min Rain = 0
KSM2 230955Z 21012KT 23/20 A2987 RMK A01 T02260196  RH  084%=      5-min Rain = 0
KSM2 230956Z 21012KT 23/20 A2987 RMK A01 T02260197  RH  084%=      5-min Rain = 0
KSM2 230957Z 20012KT 23/20 A2987 RMK A01 T02260197  RH  084%=      5-min Rain = 0
KSM2 230958Z 20012KT 23/20 A2987 RMK A01 T02260197  RH  084%=      5-min Rain = 0
KSM2 230959Z 21012KT 23/20 A2987 RMK A01 T02260197  RH  084%=      5-min Rain = 0
KSM2 231000Z 21012G17KT 23/20 A2987 RMK A01 T02250196  RH  084%=      5-min Rain = 0
KSM2 231001Z 22009KT 23/20 A2987 RMK A01 T02250196  RH  084%=      5-min Rain = 0
KSM2 231002Z 22010KT 22/20 A2987 RMK A01 T02240196  RH  084%=      5-min Rain = 0
KSM2 231003Z 22010KT 22/20 A2988 RMK A01 T02240196  RH  084%=      5-min Rain = 0
KSM2 231004Z 22009KT 22/20 A2988 RMK A01 T02240196  RH  084%=      5-min Rain = 0
KSM2 231005Z 22012KT 22/20 A2988 RMK A01 T02240196  RH  084%=      5-min Rain = 0
KSM2 231006Z 23012KT 22/20 A2988 RMK A01 T02240196  RH  084%=      5-min Rain = 0
KSM2 231007Z 23011KT 22/20 A2988 RMK A01 T02240195  RH  084%=      5-min Rain = 0
KSM2 231008Z 23010KT 22/20 A2988 RMK A01 T02240195  RH  084%=      5-min Rain = 0
KSM2 231009Z 23010KT 22/20 A2988 RMK A01 T02240195  RH  084%=      5-min Rain = 0
KSM2 231010Z 23010KT 22/20 A2988 RMK A01 T02240195  RH  084%=      5-min Rain = 0
KSM2 231011Z 23010KT 22/20 A2988 RMK A01 T02230195  RH  084%=      5-min Rain = 0
KSM2 231012Z 23009KT 22/20 A2988 RMK A01 T02230195  RH  084%=      5-min Rain = 0
KSM2 231013Z 22011KT 22/20 A2988 RMK A01 T02220195  RH  084%=      5-min Rain = 0
KSM2 231014Z 22010KT 22/20 A2988 RMK A01 T02220195  RH  085%=      5-min Rain = 0
KSM2 231015Z 22012KT 22/20 A2988 RMK A01 T02220195  RH  085%=      5-min Rain = 0
KSM2 231016Z 21011KT 22/20 A2988 RMK A01 T02220195  RH  085%=      5-min Rain = 0
KSM2 231017Z 21012KT 22/20 A2988 RMK A01 T02220195  RH  085%=      5-min Rain = 0
KSM2 231018Z 21011KT 22/20 A2988 RMK A01 T02220195  RH  085%=      5-min Rain = 0
KSM2 231019Z 21012KT 22/20 A2988 RMK A01 T02220195  RH  084%=      5-min Rain = 0
KSM2 231020Z 21012KT 22/20 A2988 RMK A01 T02220195  RH  084%=      5-min Rain = 0
KSM2 231021Z 21011KT 22/20 A2987 RMK A01 T02220195  RH  084%=      5-min Rain = 0
KSM2 231022Z 21010KT 22/20 A2988 RMK A01 T02220195  RH  084%=      5-min Rain = 0
KSM2 231023Z 22011KT 22/20 A2988 RMK A01 T02210195  RH  085%=      5-min Rain = 0
KSM2 231024Z 22010KT 22/20 A2988 RMK A01 T02210195  RH  085%=      5-min Rain = 0
KSM2 231025Z 22012KT 22/20 A2988 RMK A01 T02210195  RH  085%=      5-min Rain = 0
KSM2 231026Z 22010KT 22/19 A2988 RMK A01 T02210194  RH  085%=      5-min Rain = 0
KSM2 231027Z 22010KT 22/19 A2988 RMK A01 T02210194  RH  085%=      5-min Rain = 0
KSM2 231028Z 22012KT 22/19 A2988 RMK A01 T02200194  RH  085%=      5-min Rain = 0
KSM2 231029Z 22011G16KT 22/19 A2988 RMK A01 T02200194  RH  085%=      5-min Rain = 0
KSM2 231030Z 22012KT 22/19 A2988 RMK A01 T02200194  RH  085%=      5-min Rain = 0
KSM2 231031Z 22010KT 22/20 A2988 RMK A01 T02210195  RH  085%=      5-min Rain = 0
KSM2 231032Z 22011KT 22/19 A2988 RMK A01 T02200194  RH  085%=      5-min Rain = 0
KSM2 231033Z 22012KT 22/19 A2988 RMK A01 T02200194  RH  085%=      5-min Rain = 0
KSM2 231034Z 22010KT 22/19 A2988 RMK A01 T02200194  RH  085%=      5-min Rain = 0
KSM2 231035Z 22010KT 22/19 A2988 RMK A01 T02200194  RH  085%=      5-min Rain = 0
KSM2 231036Z 22009KT 22/19 A2988 RMK A01 T02190194  RH  085%=      5-min Rain = 0
KSM2 231037Z 22010KT 22/19 A2988 RMK A01 T02200194  RH  085%=      5-min Rain = 0
KSM2 231038Z 22011KT 22/19 A2988 RMK A01 T02190194  RH  085%=      5-min Rain = 0
KSM2 231039Z 23010KT 22/19 A2988 RMK A01 T02190194  RH  085%=      5-min Rain = 0
KSM2 231040Z 23011KT 22/19 A2989 RMK A01 T02190194  RH  086%=      5-min Rain = 0
KSM2 231041Z 23011KT 22/19 A2989 RMK A01 T02190194  RH  086%=      5-min Rain = 0
KSM2 231042Z 23010KT 22/19 A2989 RMK A01 T02190194  RH  086%=      5-min Rain = 0
KSM2 231043Z 23009KT 22/19 A2989 RMK A01 T02190194  RH  086%=      5-min Rain = 0
KSM2 231044Z 23010KT 22/19 A2989 RMK A01 T02180194  RH  086%=      5-min Rain = 0
KSM2 231045Z 23010KT 22/19 A2989 RMK A01 T02180194  RH  086%=      5-min Rain = 0
KSM2 231046Z 23011KT 22/19 A2989 RMK A01 T02180194  RH  086%=      5-min Rain = 0
KSM2 231047Z 22009KT 22/19 A2989 RMK A01 T02180194  RH  086%=      5-min Rain = 0
KSM2 231048Z 22010KT 22/19 A2989 RMK A01 T02180194  RH  086%=      5-min Rain = 0
KSM2 231049Z 23012KT 22/19 A2989 RMK A01 T02180194  RH  086%=      5-min Rain = 0
KSM2 231050Z 23011KT 22/20 A2989 RMK A01 T02180195  RH  086%=      5-min Rain = 0
KSM2 231051Z 23012KT 22/20 A2989 RMK A01 T02190195  RH  086%=      5-min Rain = 0
KSM2 231052Z 23010KT 22/20 A2989 RMK A01 T02200195  RH  086%=      5-min Rain = 0
KSM2 231053Z 23011KT 22/20 A2989 RMK A01 T02200195  RH  086%=      5-min Rain = 0
KSM2 231054Z 23012KT 22/20 A2989 RMK A01 T02190195  RH  086%=      5-min Rain = 0
KSM2 231055Z 23009KT 22/20 A2989 RMK A01 T02190195  RH  086%=      5-min Rain = 0
KSM2 231056Z 22011KT 22/20 A2989 RMK A01 T02190195  RH  086%=      5-min Rain = 0
KSM2 231057Z 23011KT 22/20 A2989 RMK A01 T02180195  RH  086%=      5-min Rain = 0
KSM2 231058Z 22011KT 22/20 A2989 RMK A01 T02190195  RH  087%=      5-min Rain = 0
KSM2 231059Z 22011KT 22/20 A2989 RMK A01 T02180195  RH  087%=      5-min Rain = 0
KSM2 231100Z 23011KT 22/20 A2989 RMK A01 T02190195  RH  086%=      5-min Rain = 0
KSM2 231101Z 23010KT 22/20 A2989 RMK A01 T02190195  RH  087%=      5-min Rain = 0
KSM2 231102Z 23011KT 22/20 A2989 RMK A01 T02180195  RH  087%=      5-min Rain = 0
KSM2 231103Z 23010KT 22/20 A2989 RMK A01 T02180195  RH  087%=      5-min Rain = 0
KSM2 231104Z 23011KT 22/20 A2989 RMK A01 T02180195  RH  087%=      5-min Rain = 0
KSM2 231105Z 23010KT 22/20 A2989 RMK A01 T02180195  RH  087%=      5-min Rain = 0
KSM2 231106Z 22009KT 22/20 A2989 RMK A01 T02180195  RH  087%=      5-min Rain = 0
KSM2 231107Z 22011KT 22/20 A2989 RMK A01 T02170195  RH  087%=      5-min Rain = 0
KSM2 231108Z 22010KT 22/20 A2989 RMK A01 T02170195  RH  087%=      5-min Rain = 0
KSM2 231109Z 23010KT 22/20 A2989 RMK A01 T02170195  RH  087%=      5-min Rain = 0
KSM2 231110Z 23010KT 22/20 A2989 RMK A01 T02170195  RH  087%=      5-min Rain = 0
KSM2 231111Z 23010KT 22/20 A2989 RMK A01 T02170195  RH  087%=      5-min Rain = 0
KSM2 231112Z 23009KT 22/20 A2989 RMK A01 T02170195  RH  087%=      5-min Rain = 0
KSM2 231113Z 23010KT 22/20 A2989 RMK A01 T02170195  RH  087%=      5-min Rain = 0
KSM2 231114Z 23010KT 22/20 A2989 RMK A01 T02170195  RH  087%=      5-min Rain = 0
KSM2 231115Z 23010KT 22/20 A2989 RMK A01 T02170195  RH  087%=      5-min Rain = 0
KSM2 231116Z 23009KT 22/20 A2989 RMK A01 T02170195  RH  087%=      5-min Rain = 0
KSM2 231117Z 23010KT 22/20 A2989 RMK A01 T02170195  RH  088%=      5-min Rain = 0
KSM2 231118Z 23010KT 22/20 A2989 RMK A01 T02170195  RH  088%=      5-min Rain = 0
KSM2 231119Z 23008KT 22/20 A2989 RMK A01 T02160195  RH  087%=      5-min Rain = 0
KSM2 231120Z 23011KT 22/19 A2989 RMK A01 T02160194  RH  088%=      5-min Rain = 0
KSM2 231121Z 23010KT 22/20 A2989 RMK A01 T02160195  RH  088%=      5-min Rain = 0
KSM2 231122Z 23011KT 22/20 A299 RMK A01 T02160195  RH  088%=      5-min Rain = 0
KSM2 231123Z 23011KT 22/20 A299 RMK A01 T02160195  RH  088%=      5-min Rain = 0
KSM2 231124Z 23010KT 22/20 A299 RMK A01 T02160195  RH  088%=      5-min Rain = 0
KSM2 231125Z 23011KT 22/20 A299 RMK A01 T02160195  RH  088%=      5-min Rain = 0
KSM2 231126Z 23011KT 22/20 A299 RMK A01 T02160195  RH  088%=      5-min Rain = 0
KSM2 231127Z 23011KT 22/20 A299 RMK A01 T02160195  RH  088%=      5-min Rain = 0
KSM2 231128Z 23012KT 22/20 A299 RMK A01 T02160195  RH  088%=      5-min Rain = 0
KSM2 231129Z 23011KT 22/20 A299 RMK A01 T02160195  RH  088%=      5-min Rain = 0
KSM2 231130Z 24010KT 22/20 A299 RMK A01 T02160195  RH  088%=      5-min Rain = 0
KSM2 231131Z 23011KT 22/20 A299 RMK A01 T02150195  RH  088%=      5-min Rain = 0
KSM2 231132Z 24010KT 22/20 A299 RMK A01 T02150195  RH  088%=      5-min Rain = 0
KSM2 231133Z 23010KT 22/19 A299 RMK A01 T02150194  RH  088%=      5-min Rain = 0
KSM2 231134Z 24009KT 21/19 A299 RMK A01 T02140194  RH  088%=      5-min Rain = 0
KSM2 231135Z 24009KT 21/19 A299 RMK A01 T02140194  RH  088%=      5-min Rain = 0
KSM2 231136Z 23009KT 21/19 A299 RMK A01 T02130194  RH  089%=      5-min Rain = 0
KSM2 231137Z 23009KT 21/19 A299 RMK A01 T02130194  RH  089%=      5-min Rain = 0
KSM2 231138Z 23009KT 21/19 A299 RMK A01 T02130194  RH  089%=      5-min Rain = 0
KSM2 231139Z 23009KT 21/19 A299 RMK A01 T02130194  RH  089%=      5-min Rain = 0
KSM2 231140Z 23008KT 21/19 A299 RMK A01 T02120194  RH  089%=      5-min Rain = 0
KSM2 231141Z 23009KT 21/19 A299 RMK A01 T02120194  RH  090%=      5-min Rain = 0
KSM2 231142Z 23008KT 21/19 A299 RMK A01 T02120194  RH  090%=      5-min Rain = 0
KSM2 231143Z 23010KT 21/19 A299 RMK A01 T02120194  RH  090%=      5-min Rain = 0
KSM2 231144Z 24010KT 21/19 A299 RMK A01 T02120194  RH  090%=      5-min Rain = 0
KSM2 231145Z 24009KT 21/19 A299 RMK A01 T02120194  RH  090%=      5-min Rain = 0
KSM2 231146Z 24009KT 21/19 A2991 RMK A01 T02110193  RH  090%=      5-min Rain = 0
KSM2 231147Z 24009KT 21/19 A2991 RMK A01 T02110193  RH  090%=      5-min Rain = 0
KSM2 231148Z 23010KT 21/19 A2991 RMK A01 T02100193  RH  090%=      5-min Rain = 0
KSM2 231149Z 24010KT 21/19 A2991 RMK A01 T02100193  RH  090%=      5-min Rain = 0
KSM2 231150Z 24009KT 21/19 A2991 RMK A01 T02100193  RH  090%=      5-min Rain = 0
KSM2 231151Z 25010KT 21/19 A2991 RMK A01 T02100192  RH  090%=      5-min Rain = 0
KSM2 231152Z 25010KT 21/19 A2991 RMK A01 T02090192  RH  090%=      5-min Rain = 0
KSM2 231153Z 25009KT 21/19 A2991 RMK A01 T02090193  RH  090%=      5-min Rain = 0
KSM2 231154Z 25009KT 21/19 A2991 RMK A01 T02090192  RH  090%=      5-min Rain = 0
KSM2 231155Z 26009KT 21/19 A2991 RMK A01 T02080192  RH  090%=      5-min Rain = 0
KSM2 231156Z 28010KT 21/19 A2991 RMK A01 T02080192  RH  090%=      5-min Rain = 0
KSM2 231157Z 30014KT 21/15 A2991 RMK A01 T02060146  RH  069%=      5-min Rain = 0
KSM2 231158Z 31015KT 20/11 A2991 RMK A01 T01990108  RH  056%=      5-min Rain = 0
KSM2 231159Z 31014KT 19/10 A2991 RMK A01 T01930101  RH  055%=      5-min Rain = 0
KSM2 231200Z 31015KT 19/10 A2991 RMK A01 T01880100  RH  056%=      5-min Rain = 0
KSM2 231201Z 31012KT 18/10 A2992 RMK A01 T01840102  RH  059%=      5-min Rain = 0
KSM2 231202Z 31012KT 18/10 A2992 RMK A01 T01810103  RH  060%=      5-min Rain = 0
KSM2 231203Z 31012KT 18/10 A2992 RMK A01 T01780102  RH  061%=      5-min Rain = 0
KSM2 231204Z 31013KT 18/10 A2992 RMK A01 T01760103  RH  062%=      5-min Rain = 0
KSM2 231205Z 31014KT 17/10 A2992 RMK A01 T01740103  RH  063%=      5-min Rain = 0
KSM2 231206Z 31011KT 17/11 A2992 RMK A01 T01730105  RH  064%=      5-min Rain = 0
KSM2 231207Z 31012KT 17/11 A2992 RMK A01 T01720106  RH  065%=      5-min Rain = 0
KSM2 231208Z 31013KT 17/11 A2992 RMK A01 T01710107  RH  066%=      5-min Rain = 0
KSM2 231209Z 31012KT 17/11 A2992 RMK A01 T01700109  RH  067%=      5-min Rain = 0
KSM2 231210Z 31012KT 17/11 A2992 RMK A01 T01690110  RH  068%=      5-min Rain = 0
KSM2 231211Z 31011KT 17/11 A2992 RMK A01 T01680111  RH  069%=      5-min Rain = 0
KSM2 231212Z 31012KT 17/11 A2992 RMK A01 T01680113  RH  070%=      5-min Rain = 0
KSM2 231213Z 31012KT 17/11 A2992 RMK A01 T01680114  RH  071%=      5-min Rain = 0
KSM2 231214Z 31011KT 17/12 A2992 RMK A01 T01670116  RH  072%=      5-min Rain = 0
KSM2 231215Z 31011KT 17/12 A2992 RMK A01 T01660116  RH  072%=      5-min Rain = 0
KSM2 231216Z 31010KT 17/12 A2992 RMK A01 T01660117  RH  073%=      5-min Rain = 0
KSM2 231217Z 31009KT 17/12 A2992 RMK A01 T01660118  RH  073%=      5-min Rain = 0
KSM2 231218Z 31012KT 17/12 A2992 RMK A01 T01660119  RH  074%=      5-min Rain = 0
KSM2 231219Z 31010KT 17/12 A2992 RMK A01 T01650119  RH  074%=      5-min Rain = 0
KSM2 231220Z 31009KT 17/12 A2992 RMK A01 T01650120  RH  074%=      5-min Rain = 0
KSM2 231221Z 30010KT 17/12 A2992 RMK A01 T01650120  RH  075%=      5-min Rain = 0
KSM2 231222Z 30010KT 17/12 A2992 RMK A01 T01650120  RH  075%=      5-min Rain = 0
KSM2 231223Z 30010KT 16/12 A2992 RMK A01 T01640121  RH  075%=      5-min Rain = 0
KSM2 231224Z 30010KT 16/12 A2992 RMK A01 T01640121  RH  075%=      5-min Rain = 0
KSM2 231225Z 30010KT 16/12 A2992 RMK A01 T01640121  RH  075%=      5-min Rain = 0
KSM2 231226Z 30010KT 16/12 A2992 RMK A01 T01640121  RH  076%=      5-min Rain = 0
KSM2 231227Z 31010KT 16/12 A2992 RMK A01 T01640121  RH  076%=      5-min Rain = 0
KSM2 231228Z 30010KT 16/12 A2992 RMK A01 T01640121  RH  076%=      5-min Rain = 0
KSM2 231229Z 31009KT 16/12 A2993 RMK A01 T01640122  RH  076%=      5-min Rain = 0
KSM2 231230Z 31009KT 16/12 A2992 RMK A01 T01640122  RH  076%=      5-min Rain = 0
KSM2 231231Z 31010KT 16/12 A2993 RMK A01 T01640122  RH  076%=      5-min Rain = 0
KSM2 231232Z 31010KT 16/12 A2993 RMK A01 T01640122  RH  076%=      5-min Rain = 0
KSM2 231233Z 31010KT 17/12 A2993 RMK A01 T01650123  RH  076%=      5-min Rain = 0
KSM2 231234Z 31009KT 17/12 A2993 RMK A01 T01660123  RH  076%=      5-min Rain = 0
KSM2 231235Z 31009KT 17/12 A2993 RMK A01 T01660124  RH  076%=      5-min Rain = 0
KSM2 231236Z 31009KT 17/12 A2993 RMK A01 T01670124  RH  076%=      5-min Rain = 0
KSM2 231237Z 31010KT 17/12 A2993 RMK A01 T01680124  RH  076%=      5-min Rain = 0
KSM2 231238Z 31010KT 17/13 A2993 RMK A01 T01680125  RH  076%=      5-min Rain = 0
KSM2 231239Z 32011KT 17/13 A2993 RMK A01 T01680125  RH  075%=      5-min Rain = 0
KSM2 231240Z 31010KT 17/12 A2993 RMK A01 T01690124  RH  075%=      5-min Rain = 0
KSM2 231241Z 31010KT 17/12 A2993 RMK A01 T01680124  RH  075%=      5-min Rain = 0
KSM2 231242Z 32010KT 17/12 A2993 RMK A01 T01680124  RH  075%=      5-min Rain = 0
KSM2 231243Z 32009KT 17/13 A2993 RMK A01 T01700126  RH  075%=      5-min Rain = 0
KSM2 231244Z 32010KT 17/13 A2993 RMK A01 T01700125  RH  075%=      5-min Rain = 0
KSM2 231245Z 32011KT 17/13 A2993 RMK A01 T01700125  RH  075%=      5-min Rain = 0
KSM2 231246Z 32012KT 17/12 A2993 RMK A01 T01700123  RH  073%=      5-min Rain = 0
KSM2 231247Z 32013KT 17/12 A2993 RMK A01 T01700123  RH  074%=      5-min Rain = 0
KSM2 231248Z 32012KT 17/12 A2993 RMK A01 T01700121  RH  073%=      5-min Rain = 0
KSM2 231249Z 32010KT 17/12 A2993 RMK A01 T01700122  RH  073%=      5-min Rain = 0
KSM2 231250Z 33009KT 17/12 A2993 RMK A01 T01700122  RH  073%=      5-min Rain = 0
KSM2 231251Z 33011KT 17/12 A2993 RMK A01 T01710120  RH  072%=      5-min Rain = 0
KSM2 231252Z 33009KT 17/12 A2993 RMK A01 T01710120  RH  072%=      5-min Rain = 0
KSM2 231253Z 33010KT 17/12 A2993 RMK A01 T01710120  RH  072%=      5-min Rain = 0
KSM2 231254Z 33011KT 17/12 A2993 RMK A01 T01720118  RH  070%=      5-min Rain = 0
KSM2 231255Z 33011KT 17/12 A2993 RMK A01 T01720116  RH  070%=      5-min Rain = 0
KSM2 231256Z 32011KT 17/12 A2993 RMK A01 T01710116  RH  070%=      5-min Rain = 0
KSM2 231257Z 33012KT 17/12 A2993 RMK A01 T01710116  RH  070%=      5-min Rain = 0
KSM2 231258Z 33010KT 17/11 A2993 RMK A01 T01720114  RH  069%=      5-min Rain = 0
KSM2 231259Z 33011KT 17/12 A2993 RMK A01 T01720116  RH  070%=      5-min Rain = 0
KSM2 231300Z 33012KT 17/12 A2993 RMK A01 T01720115  RH  069%=      5-min Rain = 0
KSM2 231301Z 33012KT 17/11 A2993 RMK A01 T01720114  RH  069%=      5-min Rain = 0
KSM2 231302Z 33012KT 17/11 A2993 RMK A01 T01720114  RH  069%=      5-min Rain = 0
KSM2 231303Z 33012KT 17/11 A2993 RMK A01 T01730114  RH  069%=      5-min Rain = 0
KSM2 231304Z 33013KT 17/11 A2993 RMK A01 T01730114  RH  069%=      5-min Rain = 0
KSM2 231305Z 34012KT 17/11 A2993 RMK A01 T01730114  RH  068%=      5-min Rain = 0
KSM2 231306Z 34013KT 17/11 A2993 RMK A01 T01730113  RH  068%=      5-min Rain = 0
KSM2 231307Z 33012KT 17/11 A2993 RMK A01 T01720114  RH  068%=      5-min Rain = 0
KSM2 231308Z 34011KT 17/11 A2993 RMK A01 T01720114  RH  069%=      5-min Rain = 0
KSM2 231309Z 34009KT 17/12 A2993 RMK A01 T01730116  RH  069%=      5-min Rain = 0
KSM2 231310Z 34012KT 17/12 A2993 RMK A01 T01740116  RH  069%=      5-min Rain = 0
KSM2 231311Z 34012KT 17/12 A2993 RMK A01 T01740116  RH  068%=      5-min Rain = 0
KSM2 231312Z 34011KT 18/12 A2993 RMK A01 T01750116  RH  069%=      5-min Rain = 0
KSM2 231313Z 34011KT 17/12 A2993 RMK A01 T01740116  RH  069%=      5-min Rain = 0
KSM2 231314Z 35011KT 18/12 A2993 RMK A01 T01750117  RH  069%=      5-min Rain = 0
KSM2 231315Z 35011KT 18/12 A2993 RMK A01 T01750117  RH  069%=      5-min Rain = 0
KSM2 231316Z 35011KT 18/12 A2993 RMK A01 T01750117  RH  069%=      5-min Rain = 0
KSM2 231317Z 35011KT 18/12 A2993 RMK A01 T01750118  RH  069%=      5-min Rain = 0
KSM2 231318Z 35012KT 18/12 A2993 RMK A01 T01760117  RH  069%=      5-min Rain = 0
KSM2 231319Z 35011KT 18/12 A2993 RMK A01 T01760117  RH  068%=      5-min Rain = 0
KSM2 231320Z 35010KT 18/12 A2993 RMK A01 T01760118  RH  069%=      5-min Rain = 0
KSM2 231321Z 34011KT 18/12 A2993 RMK A01 T01760118  RH  069%=      5-min Rain = 0
KSM2 231322Z 35010KT 18/12 A2993 RMK A01 T01760118  RH  069%=      5-min Rain = 0
KSM2 231323Z 35010KT 18/12 A2993 RMK A01 T01760119  RH  069%=      5-min Rain = 0
KSM2 231324Z 35010KT 18/12 A2993 RMK A01 T01770119  RH  069%=      5-min Rain = 0
KSM2 231325Z 35010KT 18/12 A2993 RMK A01 T01770120  RH  069%=      5-min Rain = 0
KSM2 231326Z 35010KT 18/12 A2993 RMK A01 T01780120  RH  069%=      5-min Rain = 0
KSM2 231327Z 35011KT 18/12 A2993 RMK A01 T01790120  RH  068%=      5-min Rain = 0
KSM2 231328Z 35009KT 18/12 A2993 RMK A01 T01790120  RH  068%=      5-min Rain = 0
KSM2 231329Z 35009KT 18/12 A2993 RMK A01 T01790120  RH  068%=      5-min Rain = 0
KSM2 231330Z 35009KT 18/12 A2993 RMK A01 T01800120  RH  068%=      5-min Rain = 0
KSM2 231331Z 35009KT 18/12 A2994 RMK A01 T01800120  RH  068%=      5-min Rain = 0
KSM2 231332Z 35009KT 18/12 A2994 RMK A01 T01800121  RH  068%=      5-min Rain = 0
KSM2 231333Z 35010KT 18/12 A2994 RMK A01 T01800121  RH  068%=      5-min Rain = 0
KSM2 231334Z 35009KT 18/12 A2994 RMK A01 T01810121  RH  068%=      5-min Rain = 0
KSM2 231335Z 34008KT 18/12 A2994 RMK A01 T01810122  RH  068%=      5-min Rain = 0
KSM2 231336Z 34009KT 18/12 A2994 RMK A01 T01830123  RH  068%=      5-min Rain = 0
KSM2 231337Z 34009KT 18/12 A2994 RMK A01 T01840123  RH  067%=      5-min Rain = 0
KSM2 231338Z 34009KT 19/12 A2994 RMK A01 T01850123  RH  067%=      5-min Rain = 0
KSM2 231339Z 33009KT 19/12 A2994 RMK A01 T01850123  RH  067%=      5-min Rain = 0
KSM2 231340Z 34010KT 19/12 A2994 RMK A01 T01850122  RH  067%=      5-min Rain = 0
KSM2 231341Z 34009KT 19/12 A2994 RMK A01 T01850124  RH  067%=      5-min Rain = 0
KSM2 231342Z 33008KT 19/12 A2994 RMK A01 T01850124  RH  068%=      5-min Rain = 0
KSM2 231343Z 33009KT 19/12 A2994 RMK A01 T01860124  RH  067%=      5-min Rain = 0
KSM2 231344Z 33008KT 19/12 A2994 RMK A01 T01860124  RH  067%=      5-min Rain = 0
KSM2 231345Z 33007KT 19/13 A2994 RMK A01 T01870126  RH  068%=      5-min Rain = 0
KSM2 231346Z 32009KT 19/13 A2994 RMK A01 T01880125  RH  067%=      5-min Rain = 0
KSM2 231347Z 33008KT 19/13 A2994 RMK A01 T01880125  RH  067%=      5-min Rain = 0
KSM2 231348Z 34008KT 19/13 A2994 RMK A01 T01880126  RH  067%=      5-min Rain = 0
KSM2 231349Z 33009KT 19/13 A2994 RMK A01 T01890126  RH  066%=      5-min Rain = 0
KSM2 231350Z 33009KT 19/13 A2994 RMK A01 T01900125  RH  066%=      5-min Rain = 0
KSM2 231351Z 33008KT 19/13 A2995 RMK A01 T01890125  RH  066%=      5-min Rain = 0
KSM2 231352Z 33008KT 19/13 A2995 RMK A01 T01900126  RH  066%=      5-min Rain = 0
KSM2 231353Z 32008KT 19/13 A2995 RMK A01 T01900128  RH  067%=      5-min Rain = 0
KSM2 231354Z 32009KT 19/13 A2994 RMK A01 T01910129  RH  067%=      5-min Rain = 0
KSM2 231355Z 32009KT 19/13 A2994 RMK A01 T01920129  RH  067%=      5-min Rain = 0
KSM2 231356Z 32008KT 19/13 A2994 RMK A01 T01920128  RH  066%=      5-min Rain = 0
KSM2 231357Z 33009KT 19/13 A2994 RMK A01 T01920129  RH  067%=      5-min Rain = 0
KSM2 231358Z 33008KT 19/13 A2994 RMK A01 T01930129  RH  066%=      5-min Rain = 0
KSM2 231359Z 33010KT 20/13 A2994 RMK A01 T01960129  RH  066%=      5-min Rain = 0
KSM2 231400Z 33009KT 20/13 A2994 RMK A01 T01960129  RH  065%=      5-min Rain = 0
KSM2 231401Z 34010KT 20/13 A2994 RMK A01 T01960130  RH  065%=      5-min Rain = 0
KSM2 231402Z 33010KT 20/13 A2994 RMK A01 T01970129  RH  065%=      5-min Rain = 0
KSM2 231403Z 33009KT 20/13 A2994 RMK A01 T01980130  RH  065%=      5-min Rain = 0
KSM2 231404Z 33009KT 20/13 A2994 RMK A01 T01980130  RH  065%=      5-min Rain = 0
KSM2 231405Z 32009KT 20/13 A2994 RMK A01 T01990131  RH  065%=      5-min Rain = 0
KSM2 231406Z 32010KT 20/13 A2994 RMK A01 T02010130  RH  064%=      5-min Rain = 0
KSM2 231407Z 32011KT 20/13 A2994 RMK A01 T02010130  RH  064%=      5-min Rain = 0
KSM2 231408Z 33009KT 20/13 A2994 RMK A01 T02010130  RH  064%=      5-min Rain = 0
KSM2 231409Z 33010KT 20/13 A2994 RMK A01 T02010131  RH  064%=      5-min Rain = 0
KSM2 231410Z 34009KT 20/13 A2994 RMK A01 T02010129  RH  063%=      5-min Rain = 0
KSM2 231411Z 32010KT 20/13 A2994 RMK A01 T02020129  RH  063%=      5-min Rain = 0
KSM2 231412Z 32010KT 20/13 A2994 RMK A01 T02010127  RH  062%=      5-min Rain = 0
KSM2 231413Z 33007KT 20/13 A2995 RMK A01 T02000128  RH  063%=      5-min Rain = 0
KSM2 231414Z 32008KT 20/13 A2995 RMK A01 T02020131  RH  064%=      5-min Rain = 0
KSM2 231415Z 32010KT 20/13 A2994 RMK A01 T02020131  RH  063%=      5-min Rain = 0
KSM2 231416Z 31010KT 20/13 A2994 RMK A01 T02010131  RH  064%=      5-min Rain = 0
KSM2 231417Z 33008KT 20/13 A2994 RMK A01 T02010131  RH  064%=      5-min Rain = 0
KSM2 231418Z 33010KT 20/13 A2994 RMK A01 T02030131  RH  063%=      5-min Rain = 0
KSM2 231419Z 32008KT 20/13 A2995 RMK A01 T02040131  RH  063%=      5-min Rain = 0
KSM2 231420Z 33009KT 21/13 A2995 RMK A01 T02050131  RH  062%=      5-min Rain = 0
KSM2 231421Z 32009KT 21/13 A2995 RMK A01 T02050130  RH  062%=      5-min Rain = 0
KSM2 231422Z 31010KT 21/13 A2995 RMK A01 T02060130  RH  062%=      5-min Rain = 0
KSM2 231423Z 32009KT 21/13 A2995 RMK A01 T02080130  RH  061%=      5-min Rain = 0
KSM2 231424Z 32008KT 21/13 A2995 RMK A01 T02080130  RH  061%=      5-min Rain = 0
KSM2 231425Z 32010KT 21/13 A2995 RMK A01 T02090130  RH  061%=      5-min Rain = 0
KSM2 231426Z 31009KT 21/13 A2995 RMK A01 T02090130  RH  061%=      5-min Rain = 0
KSM2 231427Z 31011KT 21/13 A2995 RMK A01 T02090128  RH  060%=      5-min Rain = 0
KSM2 231428Z 33009KT 21/13 A2995 RMK A01 T02080127  RH  060%=      5-min Rain = 0
KSM2 231429Z 33008KT 21/13 A2995 RMK A01 T02080127  RH  060%=      5-min Rain = 0
KSM2 231430Z 32010KT 21/13 A2995 RMK A01 T02100129  RH  060%=      5-min Rain = 0
KSM2 231431Z 33011KT 21/13 A2995 RMK A01 T02100128  RH  060%=      5-min Rain = 0
KSM2 231432Z 32011KT 21/13 A2995 RMK A01 T02100129  RH  060%=      5-min Rain = 0
KSM2 231433Z 32010KT 21/13 A2995 RMK A01 T02100129  RH  060%=      5-min Rain = 0
KSM2 231434Z 33010KT 21/13 A2995 RMK A01 T02110130  RH  060%=      5-min Rain = 0
KSM2 231435Z 32011KT 21/13 A2995 RMK A01 T02110128  RH  059%=      5-min Rain = 0
KSM2 231436Z 32010KT 21/13 A2995 RMK A01 T02100127  RH  059%=      5-min Rain = 0
KSM2 231437Z 33009KT 21/13 A2995 RMK A01 T02100130  RH  060%=      5-min Rain = 0
KSM2 231438Z 33011KT 21/13 A2995 RMK A01 T02110129  RH  060%=      5-min Rain = 0
KSM2 231439Z 33010KT 21/13 A2995 RMK A01 T02120127  RH  058%=      5-min Rain = 0
KSM2 231440Z 33008KT 21/13 A2995 RMK A01 T02110128  RH  059%=      5-min Rain = 0
KSM2 231441Z 33008KT 21/13 A2995 RMK A01 T02100131  RH  060%=      5-min Rain = 0
KSM2 231442Z 32008KT 21/13 A2995 RMK A01 T02140131  RH  059%=      5-min Rain = 0
KSM2 231443Z 33009KT 22/13 A2995 RMK A01 T02150131  RH  059%=      5-min Rain = 0
KSM2 231444Z 32009KT 22/13 A2995 RMK A01 T02160131  RH  059%=      5-min Rain = 0
KSM2 231445Z 32009KT 22/13 A2995 RMK A01 T02160128  RH  057%=      5-min Rain = 0
KSM2 231446Z 33010KT 22/13 A2995 RMK A01 T02150130  RH  058%=      5-min Rain = 0
KSM2 231447Z 33009KT 22/13 A2995 RMK A01 T02150129  RH  058%=      5-min Rain = 0
KSM2 231448Z 33010KT 21/13 A2995 RMK A01 T02140128  RH  058%=      5-min Rain = 0
KSM2 231449Z 32010KT 21/13 A2995 RMK A01 T02140128  RH  058%=      5-min Rain = 0
KSM2 231450Z 32010KT 21/13 A2995 RMK A01 T02140128  RH  058%=      5-min Rain = 0
KSM2 231451Z 33009KT 22/13 A2995 RMK A01 T02150130  RH  058%=      5-min Rain = 0
KSM2 231452Z 32009KT 22/13 A2995 RMK A01 T02170131  RH  058%=      5-min Rain = 0
KSM2 231453Z 31008KT 22/13 A2995 RMK A01 T02170130  RH  058%=      5-min Rain = 0
KSM2 231454Z 32009KT 22/13 A2995 RMK A01 T02160131  RH  058%=      5-min Rain = 0
KSM2 231455Z 32008KT 22/13 A2995 RMK A01 T02170132  RH  058%=      5-min Rain = 0
KSM2 231456Z 32010KT 22/13 A2995 RMK A01 T02200132  RH  058%=      5-min Rain = 0
KSM2 231457Z 32008KT 22/13 A2995 RMK A01 T02210131  RH  057%=      5-min Rain = 0
KSM2 231458Z 34009KT 22/13 A2995 RMK A01 T02230131  RH  056%=      5-min Rain = 0
KSM2 231459Z 34009KT 23/13 A2995 RMK A01 T02250130  RH  055%=      5-min Rain = 0
KSM2 231500Z 33008KT 23/13 A2995 RMK A01 T02250133  RH  056%=      5-min Rain = 0
KSM2 231501Z 33007KT 23/13 A2995 RMK A01 T02250133  RH  056%=      5-min Rain = 0
KSM2 231502Z 32009KT 23/13 A2995 RMK A01 T02250131  RH  055%=      5-min Rain = 0
KSM2 231503Z 31009KT 22/13 A2995 RMK A01 T02240131  RH  055%=      5-min Rain = 0
KSM2 231504Z 31007KT 22/13 A2995 RMK A01 T02230131  RH  056%=      5-min Rain = 0
KSM2 231505Z 33010KT 22/13 A2995 RMK A01 T02220131  RH  056%=      5-min Rain = 0
KSM2 231506Z 33009KT 22/13 A2995 RMK A01 T02230131  RH  056%=      5-min Rain = 0
KSM2 231507Z 34009KT 23/13 A2995 RMK A01 T02250128  RH  054%=      5-min Rain = 0
KSM2 231508Z 34008KT 22/13 A2995 RMK A01 T02240131  RH  056%=      5-min Rain = 0
KSM2 231509Z 32009KT 23/13 A2995 RMK A01 T02250132  RH  056%=      5-min Rain = 0
KSM2 231510Z 33010KT 23/13 A2995 RMK A01 T02260129  RH  054%=      5-min Rain = 0
KSM2 231511Z 33009KT 23/13 A2995 RMK A01 T02270130  RH  054%=      5-min Rain = 0
KSM2 231512Z 33009KT 23/13 A2995 RMK A01 T02270130  RH  054%=      5-min Rain = 0
KSM2 231513Z 32009KT 23/13 A2995 RMK A01 T02280130  RH  054%=      5-min Rain = 0
KSM2 231514Z 31009KT 23/13 A2995 RMK A01 T02290132  RH  054%=      5-min Rain = 0
KSM2 231515Z 31009KT 23/13 A2995 RMK A01 T02290131  RH  054%=      5-min Rain = 0
KSM2 231516Z 32009KT 23/13 A2995 RMK A01 T02280130  RH  054%=      5-min Rain = 0
KSM2 231517Z 32010KT 23/13 A2995 RMK A01 T02300130  RH  053%=      5-min Rain = 0
KSM2 231518Z 32010KT 23/13 A2995 RMK A01 T02320130  RH  052%=      5-min Rain = 0
KSM2 231519Z 32009KT 23/13 A2995 RMK A01 T02330132  RH  053%=      5-min Rain = 0
KSM2 231520Z 31011KT 24/13 A2995 RMK A01 T02350133  RH  053%=      5-min Rain = 0
KSM2 231521Z 31009KT 23/13 A2995 RMK A01 T02340131  RH  052%=      5-min Rain = 0
KSM2 231522Z 30011KT 23/13 A2995 RMK A01 T02330128  RH  052%=      5-min Rain = 0
KSM2 231523Z 32010KT 23/13 A2995 RMK A01 T02330127  RH  051%=      5-min Rain = 0
KSM2 231524Z 32011KT 23/13 A2995 RMK A01 T02330131  RH  053%=      5-min Rain = 0
KSM2 231525Z 32008KT 23/13 A2995 RMK A01 T02330134  RH  054%=      5-min Rain = 0
KSM2 231526Z 32012KT 24/13 A2995 RMK A01 T02350131  RH  052%=      5-min Rain = 0
KSM2 231527Z 33012KT 24/13 A2995 RMK A01 T02360130  RH  051%=      5-min Rain = 0
KSM2 231528Z 33012KT 24/13 A2995 RMK A01 T02360129  RH  051%=      5-min Rain = 0
KSM2 231529Z 33011KT 23/13 A2995 RMK A01 T02340131  RH  052%=      5-min Rain = 0
KSM2 231530Z 32008KT 23/13 A2995 RMK A01 T02330132  RH  053%=      5-min Rain = 0
KSM2 231531Z 32010KT 24/14 A2995 RMK A01 T02360135  RH  053%=      5-min Rain = 0
KSM2 231532Z 31011KT 24/13 A2995 RMK A01 T02400133  RH  051%=      5-min Rain = 0
KSM2 231533Z 30012KT 24/13 A2995 RMK A01 T02390130  RH  050%=      5-min Rain = 0
KSM2 231534Z 31012KT 24/13 A2995 RMK A01 T02390127  RH  050%=      5-min Rain = 0
KSM2 231535Z 32011KT 24/13 A2995 RMK A01 T02400131  RH  051%=      5-min Rain = 0
KSM2 231536Z 32010KT 24/13 A2995 RMK A01 T02400131  RH  051%=      5-min Rain = 0
KSM2 231537Z 31013KT 24/13 A2995 RMK A01 T02400131  RH  050%=      5-min Rain = 0
KSM2 231538Z 31012KT 24/13 A2995 RMK A01 T02430131  RH  050%=      5-min Rain = 0
KSM2 231539Z 31010KT 24/13 A2995 RMK A01 T02430131  RH  050%=      5-min Rain = 0
KSM2 231540Z 32010KT 24/13 A2995 RMK A01 T02430131  RH  049%=      5-min Rain = 0
KSM2 231541Z 32011KT 25/13 A2995 RMK A01 T02450131  RH  049%=      5-min Rain = 0
KSM2 231542Z 31009KT 25/13 A2995 RMK A01 T02500134  RH  049%=      5-min Rain = 0
KSM2 231543Z 31011KT 25/13 A2995 RMK A01 T02520132  RH  047%=      5-min Rain = 0
KSM2 231544Z 31010KT 25/13 A2995 RMK A01 T02470128  RH  047%=      5-min Rain = 0
KSM2 231545Z 33012KT 24/13 A2995 RMK A01 T02440128  RH  048%=      5-min Rain = 0
KSM2 231546Z 33011KT 24/13 A2995 RMK A01 T02430128  RH  049%=      5-min Rain = 0
KSM2 231547Z 33010KT 24/13 A2995 RMK A01 T02420129  RH  049%=      5-min Rain = 0
KSM2 231548Z 33010KT 24/13 A2995 RMK A01 T02420129  RH  049%=      5-min Rain = 0
KSM2 231549Z 30010KT 24/13 A2995 RMK A01 T02440134  RH  050%=      5-min Rain = 0
KSM2 231550Z 31011KT 25/13 A2995 RMK A01 T02480133  RH  049%=      5-min Rain = 0
KSM2 231551Z 30012KT 25/13 A2995 RMK A01 T02490129  RH  047%=      5-min Rain = 0
KSM2 231552Z 31009KT 25/13 A2995 RMK A01 T02480128  RH  047%=      5-min Rain = 0
KSM2 231553Z 29008KT 25/13 A2995 RMK A01 T02480130  RH  048%=      5-min Rain = 0
KSM2 231554Z 31010KT 25/14 A2995 RMK A01 T02520135  RH  048%=      5-min Rain = 0
KSM2 231555Z 32010KT 26/13 A2995 RMK A01 T02550134  RH  047%=      5-min Rain = 0
KSM2 231556Z 31011KT 26/13 A2995 RMK A01 T02550134  RH  047%=      5-min Rain = 0
KSM2 231557Z 31011KT 25/13 A2995 RMK A01 T02540131  RH  047%=      5-min Rain = 0
KSM2 231558Z 33012KT 25/13 A2995 RMK A01 T02520129  RH  046%=      5-min Rain = 0
KSM2 231559Z 33011KT 25/13 A2995 RMK A01 T02500127  RH  046%=      5-min Rain = 0
KSM2 231600Z 33011KT 25/13 A2995 RMK A01 T02480128  RH  047%=      5-min Rain = 0
KSM2 231601Z 32011KT 25/13 A2995 RMK A01 T02510130  RH  047%=      5-min Rain = 0
KSM2 231602Z 32013KT 25/13 A2995 RMK A01 T02500131  RH  047%=      5-min Rain = 0
KSM2 231603Z 31011KT 25/13 A2995 RMK A01 T02500129  RH  047%=      5-min Rain = 0
KSM2 231604Z 32011KT 25/12 A2995 RMK A01 T02500124  RH  045%=      5-min Rain = 0
KSM2 231605Z 32012KT 25/12 A2995 RMK A01 T02520124  RH  045%=      5-min Rain = 0
KSM2 231606Z 32011KT 25/13 A2995 RMK A01 T02530128  RH  046%=      5-min Rain = 0
KSM2 231607Z 32010KT 25/13 A2995 RMK A01 T02530127  RH  046%=      5-min Rain = 0
KSM2 231608Z 32011KT 25/12 A2995 RMK A01 T02530124  RH  045%=      5-min Rain = 0
KSM2 231609Z 32012KT 25/12 A2995 RMK A01 T02530121  RH  044%=      5-min Rain = 0
KSM2 231610Z 31011KT 25/13 A2995 RMK A01 T02540127  RH  045%=      5-min Rain = 0
KSM2 231611Z 31010KT 25/13 A2995 RMK A01 T02540126  RH  045%=      5-min Rain = 0
KSM2 231612Z 33010KT 26/13 A2995 RMK A01 T02550128  RH  045%=      5-min Rain = 0
KSM2 231613Z 33009KT 26/13 A2995 RMK A01 T02560130  RH  046%=      5-min Rain = 0
KSM2 231614Z 33011KT 26/13 A2995 RMK A01 T02580129  RH  045%=      5-min Rain = 0
KSM2 231615Z 33011KT 26/13 A2995 RMK A01 T02570128  RH  044%=      5-min Rain = 0
KSM2 231616Z 32012KT 26/13 A2995 RMK A01 T02590128  RH  044%=      5-min Rain = 0
KSM2 231617Z 33011KT 26/13 A2995 RMK A01 T02590128  RH  044%=      5-min Rain = 0
KSM2 231618Z 32009KT 26/13 A2995 RMK A01 T02570128  RH  045%=      5-min Rain = 0
KSM2 231619Z 33010KT 26/13 A2995 RMK A01 T02570129  RH  045%=      5-min Rain = 0
KSM2 231620Z 32009KT 26/13 A2995 RMK A01 T02590129  RH  045%=      5-min Rain = 0
KSM2 231621Z 33011KT 26/13 A2995 RMK A01 T02620129  RH  044%=      5-min Rain = 0
KSM2 231622Z 34012KT 26/13 A2995 RMK A01 T02600128  RH  044%=      5-min Rain = 0
KSM2 231623Z 34011KT 26/13 A2995 RMK A01 T02610128  RH  044%=      5-min Rain = 0
KSM2 231624Z 34010KT 26/13 A2995 RMK A01 T02620129  RH  044%=      5-min Rain = 0
KSM2 231625Z 33008KT 26/13 A2995 RMK A01 T02610128  RH  044%=      5-min Rain = 0
KSM2 231626Z 32008G13KT 26/13 A2995 RMK A01 T02580129  RH  045%=      5-min Rain = 0
KSM2 231627Z 32012KT 26/13 A2995 RMK A01 T02600129  RH  044%=      5-min Rain = 0
KSM2 231628Z 30009KT 26/13 A2995 RMK A01 T02620126  RH  043%=      5-min Rain = 0
KSM2 231629Z 30009KT 26/13 A2995 RMK A01 T02620128  RH  043%=      5-min Rain = 0
KSM2 231630Z 32010KT 26/13 A2995 RMK A01 T02640131  RH  044%=      5-min Rain = 0
KSM2 231631Z 33012KT 27/13 A2995 RMK A01 T02670131  RH  043%=      5-min Rain = 0
KSM2 231632Z 33009KT 27/13 A2995 RMK A01 T02660130  RH  043%=      5-min Rain = 0
KSM2 231633Z 32013KT 27/13 A2995 RMK A01 T02650130  RH  043%=      5-min Rain = 0
KSM2 231634Z 32011KT 27/13 A2995 RMK A01 T02650128  RH  043%=      5-min Rain = 0
KSM2 231635Z 33010KT 26/13 A2995 RMK A01 T02640128  RH  043%=      5-min Rain = 0
KSM2 231636Z 33012KT 27/13 A2995 RMK A01 T02650129  RH  043%=      5-min Rain = 0
KSM2 231637Z 32011KT 27/13 A2995 RMK A01 T02670128  RH  042%=      5-min Rain = 0
KSM2 231638Z 33010G15KT 27/13 A2995 RMK A01 T02670129  RH  042%=      5-min Rain = 0
KSM2 231639Z 32012KT 27/13 A2995 RMK A01 T02670130  RH  043%=      5-min Rain = 0
KSM2 231640Z 31012KT 27/13 A2995 RMK A01 T02690126  RH  041%=      5-min Rain = 0
KSM2 231641Z 31009KT 27/13 A2995 RMK A01 T02670126  RH  042%=      5-min Rain = 0
KSM2 231642Z 30010KT 27/13 A2995 RMK A01 T02680126  RH  041%=      5-min Rain = 0
KSM2 231643Z 31010KT 27/13 A2995 RMK A01 T02700129  RH  042%=      5-min Rain = 0
KSM2 231644Z 30011KT 27/13 A2995 RMK A01 T02720131  RH  042%=      5-min Rain = 0
KSM2 231645Z 31012KT 27/13 A2995 RMK A01 T02730130  RH  041%=      5-min Rain = 0
KSM2 231646Z 31010KT 27/13 A2995 RMK A01 T02730127  RH  040%=      5-min Rain = 0
KSM2 231647Z 31008KT 27/13 A2995 RMK A01 T02710126  RH  040%=      5-min Rain = 0
KSM2 231648Z 32008KT 27/13 A2995 RMK A01 T02680127  RH  041%=      5-min Rain = 0
KSM2 231649Z 30010KT 27/13 A2995 RMK A01 T02700129  RH  042%=      5-min Rain = 0
KSM2 231650Z 31008KT 27/13 A2995 RMK A01 T02710131  RH  042%=      5-min Rain = 0
KSM2 231651Z 33010KT 27/13 A2995 RMK A01 T02710130  RH  042%=      5-min Rain = 0
KSM2 231652Z 33011KT 27/13 A2995 RMK A01 T02700130  RH  042%=      5-min Rain = 0
KSM2 231653Z 32009KT 27/13 A2995 RMK A01 T02700130  RH  042%=      5-min Rain = 0
KSM2 231654Z 31011KT 27/13 A2995 RMK A01 T02720130  RH  041%=      5-min Rain = 0
KSM2 231655Z 31009KT 27/13 A2995 RMK A01 T02730128  RH  041%=      5-min Rain = 0
KSM2 231656Z 31011KT 27/13 A2995 RMK A01 T02740129  RH  041%=      5-min Rain = 0
KSM2 231657Z 31010KT 27/13 A2995 RMK A01 T02710127  RH  041%=      5-min Rain = 0
KSM2 231658Z 32009KT 27/13 A2995 RMK A01 T02690127  RH  041%=      5-min Rain = 0
KSM2 231659Z 31007KT 27/13 A2995 RMK A01 T02690126  RH  041%=      5-min Rain = 0
KSM2 231700Z 31010KT 27/13 A2995 RMK A01 T02690129  RH  042%=      5-min Rain = 0
KSM2 231701Z 32009KT 27/13 A2995 RMK A01 T02710130  RH  042%=      5-min Rain = 0
KSM2 231702Z 34010KT 27/13 A2995 RMK A01 T02730132  RH  042%=      5-min Rain = 0
KSM2 231703Z 32010KT 27/13 A2995 RMK A01 T02730133  RH  042%=      5-min Rain = 0
KSM2 231704Z 30011KT 27/13 A2995 RMK A01 T02720130  RH  042%=      5-min Rain = 0
KSM2 231705Z 31012KT 27/13 A2995 RMK A01 T02720130  RH  041%=      5-min Rain = 0
KSM2 231706Z 31011KT 27/13 A2995 RMK A01 T02740127  RH  040%=      5-min Rain = 0
KSM2 231707Z 32011KT 27/13 A2995 RMK A01 T02730128  RH  041%=      5-min Rain = 0
KSM2 231708Z 34009KT 28/13 A2995 RMK A01 T02750130  RH  041%=      5-min Rain = 0
KSM2 231709Z 34008KT 28/13 A2995 RMK A01 T02780130  RH  040%=      5-min Rain = 0
KSM2 231710Z 33008KT 28/13 A2995 RMK A01 T02760130  RH  041%=      5-min Rain = 0
KSM2 231711Z 31009KT 28/13 A2995 RMK A01 T02760130  RH  041%=      5-min Rain = 0
KSM2 231712Z 31010KT 28/13 A2995 RMK A01 T02750131  RH  041%=      5-min Rain = 0
KSM2 231713Z 34011KT 28/13 A2995 RMK A01 T02770134  RH  041%=      5-min Rain = 0
KSM2 231714Z 33010KT 28/13 A2995 RMK A01 T02810132  RH  040%=      5-min Rain = 0
KSM2 231715Z 33011KT 28/13 A2995 RMK A01 T02800130  RH  039%=      5-min Rain = 0
KSM2 231716Z 33012KT 28/13 A2995 RMK A01 T02780127  RH  039%=      5-min Rain = 0
KSM2 231717Z 33010KT 28/13 A2995 RMK A01 T02800127  RH  039%=      5-min Rain = 0
KSM2 231718Z 33012KT 28/13 A2995 RMK A01 T02800128  RH  039%=      5-min Rain = 0
KSM2 231719Z 32010G15KT 28/13 A2995 RMK A01 T02770126  RH  039%=      5-min Rain = 0
KSM2 231720Z 32009KT 28/13 A2995 RMK A01 T02760125  RH  039%=      5-min Rain = 0
KSM2 231721Z 33011KT 28/13 A2995 RMK A01 T02760128  RH  040%=      5-min Rain = 0
KSM2 231722Z 34012KT 28/13 A2995 RMK A01 T02800128  RH  039%=      5-min Rain = 0
KSM2 231723Z 33012KT 28/13 A2995 RMK A01 T02820129  RH  039%=      5-min Rain = 0
KSM2 231724Z 33009KT 28/13 A2995 RMK A01 T02810129  RH  039%=      5-min Rain = 0
KSM2 231725Z 34011KT 28/13 A2995 RMK A01 T02810132  RH  040%=      5-min Rain = 0
KSM2 231726Z 34011KT 28/13 A2995 RMK A01 T02830129  RH  039%=      5-min Rain = 0
KSM2 231727Z 34011KT 28/13 A2995 RMK A01 T02820129  RH  039%=      5-min Rain = 0
KSM2 231728Z 34013KT 28/13 A2995 RMK A01 T02840129  RH  038%=      5-min Rain = 0
KSM2 231729Z 32011KT 29/13 A2995 RMK A01 T02890127  RH  037%=      5-min Rain = 0
KSM2 231730Z 32007KT 28/13 A2995 RMK A01 T02830125  RH  038%=      5-min Rain = 0
KSM2 231731Z 32012KT 28/13 A2995 RMK A01 T02810128  RH  039%=      5-min Rain = 0
KSM2 231732Z 33012KT 28/13 A2995 RMK A01 T02820126  RH  038%=      5-min Rain = 0
KSM2 231733Z 33010KT 28/13 A2995 RMK A01 T02800125  RH  038%=      5-min Rain = 0
KSM2 231734Z 33012KT 28/12 A2995 RMK A01 T02810124  RH  038%=      5-min Rain = 0
KSM2 231735Z 34012KT 28/12 A2995 RMK A01 T02830122  RH  037%=      5-min Rain = 0
KSM2 231736Z 33011KT 28/12 A2995 RMK A01 T02830124  RH  037%=      5-min Rain = 0
KSM2 231737Z 34011KT 28/12 A2995 RMK A01 T02830124  RH  037%=      5-min Rain = 0
KSM2 231738Z 34007KT 28/13 A2995 RMK A01 T02800126  RH  039%=      5-min Rain = 0
KSM2 231739Z 33011KT 28/13 A2995 RMK A01 T02790127  RH  039%=      5-min Rain = 0
KSM2 231740Z 34011KT 28/13 A2995 RMK A01 T02840125  RH  037%=      5-min Rain = 0
KSM2 231741Z 32013KT 29/13 A2995 RMK A01 T02860128  RH  038%=      5-min Rain = 0
KSM2 231742Z 31012KT 29/13 A2995 RMK A01 T02880125  RH  037%=      5-min Rain = 0
KSM2 231743Z 32012KT 29/13 A2995 RMK A01 T02890125  RH  036%=      5-min Rain = 0
KSM2 231744Z 32011KT 29/12 A2995 RMK A01 T02880123  RH  036%=      5-min Rain = 0
KSM2 231745Z 31011KT 29/13 A2995 RMK A01 T02850127  RH  038%=      5-min Rain = 0
KSM2 231746Z 33011KT 29/13 A2995 RMK A01 T02870128  RH  038%=      5-min Rain = 0
KSM2 231747Z 32005KT 29/12 A2995 RMK A01 T02860124  RH  037%=      5-min Rain = 0
KSM2 231748Z 32005KT 28/13 A2995 RMK A01 T02820125  RH  038%=      5-min Rain = 0
KSM2 231749Z 32008G13KT 28/13 A2995 RMK A01 T02820128  RH  039%=      5-min Rain = 0
KSM2 231750Z 33008KT 28/12 A2995 RMK A01 T02830120  RH  036%=      5-min Rain = 0
KSM2 231751Z 30010KT 28/13 A2994 RMK A01 T02830125  RH  038%=      5-min Rain = 0
KSM2 231752Z 32010KT 29/13 A2994 RMK A01 T02860129  RH  038%=      5-min Rain = 0
KSM2 231753Z 33008KT 29/13 A2995 RMK A01 T02890128  RH  037%=      5-min Rain = 0
KSM2 231754Z 34009G14KT 29/12 A2994 RMK A01 T02870123  RH  036%=      5-min Rain = 0
KSM2 231755Z 33010G15KT 29/11 A2994 RMK A01 T02860114  RH  034%=      5-min Rain = 0
KSM2 231756Z 32013KT 29/12 A2994 RMK A01 T02860116  RH  035%=      5-min Rain = 0
KSM2 231757Z 32010G15KT 29/11 A2994 RMK A01 T02880114  RH  034%=      5-min Rain = 0
KSM2 231758Z 33012KT 29/13 A2994 RMK A01 T02890128  RH  037%=      5-min Rain = 0
KSM2 231759Z 33010KT 29/13 A2994 RMK A01 T02940131  RH  037%=      5-min Rain = 0
KSM2 231800Z 33006KT 29/13 A2994 RMK A01 T02940128  RH  036%=      5-min Rain = 0
KSM2 231801Z 33015KT 29/12 A2994 RMK A01 T02920117  RH  034%=      5-min Rain = 0
KSM2 231802Z 33014KT 30/11 A2994 RMK A01 T02950114  RH  033%=      5-min Rain = 0
KSM2 231803Z 33012KT 30/12 A2994 RMK A01 T02960118  RH  033%=      5-min Rain = 0
KSM2 231804Z 33011KT 29/12 A2994 RMK A01 T02920119  RH  034%=      5-min Rain = 0
KSM2 231805Z 32011KT 29/12 A2994 RMK A01 T02910120  RH  035%=      5-min Rain = 0
KSM2 231806Z 31013KT 29/12 A2994 RMK A01 T02910124  RH  036%=      5-min Rain = 0
KSM2 231807Z 31013KT 29/12 A2994 RMK A01 T02910120  RH  035%=      5-min Rain = 0
KSM2 231808Z 30011KT 29/12 A2994 RMK A01 T02920119  RH  034%=      5-min Rain = 0
KSM2 231809Z 30011KT 29/12 A2994 RMK A01 T02920119  RH  034%=      5-min Rain = 0
KSM2 231810Z 29012KT 29/12 A2994 RMK A01 T02930118  RH  034%=      5-min Rain = 0
KSM2 231811Z 29008KT 29/12 A2994 RMK A01 T02900116  RH  034%=      5-min Rain = 0
KSM2 231812Z 29008KT 29/12 A2994 RMK A01 T02890121  RH  035%=      5-min Rain = 0
KSM2 231813Z 31010G16KT 29/13 A2994 RMK A01 T02900125  RH  036%=      5-min Rain = 0
KSM2 231814Z 33014KT 30/12 A2994 RMK A01 T02960118  RH  033%=      5-min Rain = 0
KSM2 231815Z 33014KT 30/12 A2994 RMK A01 T03020119  RH  033%=      5-min Rain = 0
KSM2 231816Z 33014KT 30/12 A2994 RMK A01 T03020118  RH  032%=      5-min Rain = 0
KSM2 231817Z 32012KT 30/12 A2994 RMK A01 T02980118  RH  033%=      5-min Rain = 0
KSM2 231818Z 34010KT 29/12 A2994 RMK A01 T02930117  RH  034%=      5-min Rain = 0
KSM2 231819Z 32008KT 29/12 A2994 RMK A01 T02910118  RH  034%=      5-min Rain = 0
KSM2 231820Z 32008KT 29/12 A2994 RMK A01 T02900120  RH  035%=      5-min Rain = 0
KSM2 231821Z 34011KT 29/12 A2994 RMK A01 T02940120  RH  034%=      5-min Rain = 0
KSM2 231822Z 33009KT 30/12 A2994 RMK A01 T02980115  RH  032%=      5-min Rain = 0
KSM2 231823Z 33011KT 30/12 A2994 RMK A01 T02960116  RH  033%=      5-min Rain = 0
KSM2 231824Z 32009KT 30/11 A2994 RMK A01 T02960112  RH  032%=      5-min Rain = 0
KSM2 231825Z 31011KT 30/11 A2994 RMK A01 T02950113  RH  032%=      5-min Rain = 0
KSM2 231826Z 30011KT 30/11 A2994 RMK A01 T02970105  RH  030%=      5-min Rain = 0
KSM2 231827Z 31007KT 30/11 A2994 RMK A01 T02960105  RH  031%=      5-min Rain = 0
KSM2 231828Z 32011KT 30/11 A2994 RMK A01 T02970111  RH  032%=      5-min Rain = 0
KSM2 231829Z 31014KT 30/11 A2994 RMK A01 T02970111  RH  032%=      5-min Rain = 0
KSM2 231830Z 31010KT 30/10 A2994 RMK A01 T03000104  RH  030%=      5-min Rain = 0
KSM2 231831Z 33011G16KT 30/12 A2994 RMK A01 T03020117  RH  032%=      5-min Rain = 0
KSM2 231832Z 32014KT 30/11 A2994 RMK A01 T03040114  RH  031%=      5-min Rain = 0
KSM2 231833Z 34012KT 30/11 A2994 RMK A01 T03010114  RH  031%=      5-min Rain = 0
KSM2 231834Z 34012KT 30/12 A2994 RMK A01 T02990117  RH  032%=      5-min Rain = 0
KSM2 231835Z 33010KT 30/12 A2994 RMK A01 T02970117  RH  033%=      5-min Rain = 0
KSM2 231836Z 33010KT 30/12 A2994 RMK A01 T02960116  RH  033%=      5-min Rain = 0
KSM2 231837Z 33008KT 30/12 A2994 RMK A01 T02950116  RH  033%=      5-min Rain = 0
KSM2 231838Z 32007KT 29/11 A2994 RMK A01 T02940110  RH  032%=      5-min Rain = 0
KSM2 231839Z 32010KT 30/11 A2993 RMK A01 T02970108  RH  031%=      5-min Rain = 0
KSM2 231840Z 33011KT 30/12 A2993 RMK A01 T03010120  RH  033%=      5-min Rain = 0
KSM2 231841Z 34013KT 30/12 A2993 RMK A01 T03020116  RH  032%=      5-min Rain = 0
KSM2 231842Z 34016KT 30/11 A2993 RMK A01 T03010106  RH  030%=      5-min Rain = 0
KSM2 231843Z 31015G21KT 30/10 A2993 RMK A01 T03030097  RH  028%=      5-min Rain = 0
KSM2 231844Z 30014KT 30/10 A2993 RMK A01 T03010095  RH  028%=      5-min Rain = 0
KSM2 231845Z 30011KT 30/10 A2993 RMK A01 T03000101  RH  029%=      5-min Rain = 0
KSM2 231846Z 32011KT 30/11 A2993 RMK A01 T02990106  RH  030%=      5-min Rain = 0
KSM2 231847Z 30010KT 30/11 A2993 RMK A01 T03000107  RH  030%=      5-min Rain = 0
KSM2 231848Z 30007KT 30/11 A2993 RMK A01 T03000107  RH  030%=      5-min Rain = 0
KSM2 231849Z 31009KT 30/11 A2993 RMK A01 T03010109  RH  031%=      5-min Rain = 0
KSM2 231850Z 31011KT 30/11 A2993 RMK A01 T03040107  RH  030%=      5-min Rain = 0
KSM2 231851Z 31011KT 31/09 A2993 RMK A01 T03090093  RH  026%=      5-min Rain = 0
KSM2 231852Z 32012KT 31/11 A2993 RMK A01 T03110111  RH  029%=      5-min Rain = 0
KSM2 231853Z 32015KT 31/11 A2993 RMK A01 T03100111  RH  029%=      5-min Rain = 0
KSM2 231854Z 33012G17KT 31/11 A2993 RMK A01 T03090110  RH  029%=      5-min Rain = 0
KSM2 231855Z 33011KT 31/11 A2993 RMK A01 T03080110  RH  030%=      5-min Rain = 0
KSM2 231856Z 34012KT 31/11 A2993 RMK A01 T03110111  RH  029%=      5-min Rain = 0
KSM2 231857Z 32013KT 31/11 A2993 RMK A01 T03090106  RH  028%=      5-min Rain = 0
KSM2 231858Z 33015KT 31/09 A2993 RMK A01 T03060091  RH  026%=      5-min Rain = 0
KSM2 231859Z 32018KT 31/08 A2993 RMK A01 T03110080  RH  024%=      5-min Rain = 0
KSM2 231900Z 33017KT 31/08 A2993 RMK A01 T03100084  RH  025%=      5-min Rain = 0
KSM2 231901Z 33014G20KT 31/09 A2993 RMK A01 T03060086  RH  025%=      5-min Rain = 0
KSM2 231902Z 32012KT 30/09 A2993 RMK A01 T03020087  RH  026%=      5-min Rain = 0
KSM2 231903Z 31011KT 31/09 A2993 RMK A01 T03080088  RH  026%=      5-min Rain = 0
KSM2 231904Z 30011KT 31/08 A2993 RMK A01 T03140076  RH  023%=      5-min Rain = 0
KSM2 231905Z 30011KT 31/09 A2993 RMK A01 T03120085  RH  025%=      5-min Rain = 0
KSM2 231906Z 31012KT 31/09 A2993 RMK A01 T03060091  RH  026%=      5-min Rain = 0
KSM2 231907Z 33016KT 31/10 A2993 RMK A01 T03090095  RH  027%=      5-min Rain = 0
KSM2 231908Z 33015KT 31/09 A2993 RMK A01 T03090093  RH  026%=      5-min Rain = 0
KSM2 231909Z 33013KT 31/09 A2993 RMK A01 T03080088  RH  026%=      5-min Rain = 0
KSM2 231910Z 32014KT 31/09 A2993 RMK A01 T03080090  RH  026%=      5-min Rain = 0
KSM2 231911Z 32015KT 31/09 A2993 RMK A01 T03080089  RH  026%=      5-min Rain = 0
KSM2 231912Z 33014KT 31/09 A2993 RMK A01 T03080090  RH  026%=      5-min Rain = 0
KSM2 231913Z 32015KT 31/09 A2993 RMK A01 T03090086  RH  025%=      5-min Rain = 0
KSM2 231914Z 32011KT 31/08 A2993 RMK A01 T03070083  RH  025%=      5-min Rain = 0
KSM2 231915Z 33007KT 31/08 A2993 RMK A01 T03050082  RH  025%=      5-min Rain = 0
KSM2 231916Z 32013KT 30/07 A2993 RMK A01 T03030072  RH  024%=      5-min Rain = 0
KSM2 231917Z 32013KT 31/07 A2993 RMK A01 T03070066  RH  022%=      5-min Rain = 0
KSM2 231918Z 33017KT 31/07 A2993 RMK A01 T03130068  RH  022%=      5-min Rain = 0
KSM2 231919Z 32014KT 31/07 A2993 RMK A01 T03120068  RH  022%=      5-min Rain = 0
KSM2 231920Z 31012KT 31/07 A2993 RMK A01 T03100069  RH  022%=      5-min Rain = 0
KSM2 231921Z 29013KT 31/08 A2993 RMK A01 T03090082  RH  024%=      5-min Rain = 0
KSM2 231922Z 29011KT 31/09 A2993 RMK A01 T03110087  RH  025%=      5-min Rain = 0
KSM2 231923Z 29010KT 31/09 A2993 RMK A01 T03110087  RH  025%=      5-min Rain = 0
KSM2 231924Z 30015G20KT 31/07 A2993 RMK A01 T03110072  RH  022%=      5-min Rain = 0
KSM2 231925Z 31016KT 31/05 A2993 RMK A01 T03110054  RH  020%=      5-min Rain = 0
KSM2 231926Z 32017KT 32/05 A2993 RMK A01 T03150049  RH  019%=      5-min Rain = 0
KSM2 231927Z 32015KT 31/05 A2993 RMK A01 T03140051  RH  019%=      5-min Rain = 0
KSM2 231928Z 32015KT 31/06 A2993 RMK A01 T03100059  RH  021%=      5-min Rain = 0
KSM2 231929Z 30016G21KT 31/06 A2993 RMK A01 T03090063  RH  021%=      5-min Rain = 0
KSM2 231930Z 31013KT 31/06 A2993 RMK A01 T03120056  RH  020%=      5-min Rain = 0
KSM2 231931Z 32008KT 31/06 A2993 RMK A01 T03090055  RH  020%=      5-min Rain = 0
KSM2 231932Z 32012KT 31/06 A2993 RMK A01 T03060059  RH  021%=      5-min Rain = 0
KSM2 231933Z 32013KT 31/06 A2993 RMK A01 T03080061  RH  021%=      5-min Rain = 0
KSM2 231934Z 30012KT 31/07 A2993 RMK A01 T03100066  RH  022%=      5-min Rain = 0
KSM2 231935Z 31009KT 31/07 A2993 RMK A01 T03130066  RH  021%=      5-min Rain = 0
KSM2 231936Z 31010G15KT 31/07 A2993 RMK A01 T03110067  RH  022%=      5-min Rain = 0
KSM2 231937Z 31015KT 31/08 A2993 RMK A01 T03090075  RH  023%=      5-min Rain = 0
KSM2 231938Z 31012KT 31/08 A2993 RMK A01 T03100077  RH  023%=      5-min Rain = 0
KSM2 231939Z 32014KT 31/06 A2993 RMK A01 T03110064  RH  021%=      5-min Rain = 0
KSM2 231940Z 31011KT 31/06 A2993 RMK A01 T03130057  RH  020%=      5-min Rain = 0
KSM2 231941Z 31009KT 31/06 A2993 RMK A01 T03100060  RH  021%=      5-min Rain = 0
KSM2 231942Z 30010KT 31/07 A2993 RMK A01 T03080066  RH  022%=      5-min Rain = 0
KSM2 231943Z 31008KT 31/07 A2992 RMK A01 T03090069  RH  022%=      5-min Rain = 0
KSM2 231944Z 30010KT 31/07 A2992 RMK A01 T03100070  RH  022%=      5-min Rain = 0
KSM2 231945Z 32016KT 31/08 A2992 RMK A01 T03110080  RH  024%=      5-min Rain = 0
KSM2 231946Z 33010KT 31/08 A2992 RMK A01 T03120077  RH  023%=      5-min Rain = 0
KSM2 231947Z 31009KT 31/08 A2992 RMK A01 T03090081  RH  024%=      5-min Rain = 0
KSM2 231948Z 32011G19KT 31/08 A2992 RMK A01 T03090084  RH  025%=      5-min Rain = 0
KSM2 231949Z 32014KT 31/08 A2992 RMK A01 T03120081  RH  024%=      5-min Rain = 0
KSM2 231950Z 30015KT 31/08 A2992 RMK A01 T03140082  RH  024%=      5-min Rain = 0
KSM2 231951Z 30012KT 31/08 A2993 RMK A01 T03110079  RH  024%=      5-min Rain = 0
KSM2 231952Z 32012KT 31/07 A2992 RMK A01 T03090073  RH  023%=      5-min Rain = 0
KSM2 231953Z 32014KT 31/07 A2992 RMK A01 T03090069  RH  022%=      5-min Rain = 0
KSM2 231954Z 33010KT 31/07 A2992 RMK A01 T03080071  RH  023%=      5-min Rain = 0
KSM2 231955Z 33012KT 31/07 A2992 RMK A01 T03110065  RH  021%=      5-min Rain = 0
KSM2 231956Z 33016KT 31/06 A2992 RMK A01 T03110059  RH  021%=      5-min Rain = 0
KSM2 231957Z 31015KT 31/06 A2992 RMK A01 T03140064  RH  021%=      5-min Rain = 0
KSM2 231958Z 30016KT 32/07 A2992 RMK A01 T03160069  RH  021%=      5-min Rain = 0
KSM2 231959Z 30013KT 32/07 A2992 RMK A01 T03170067  RH  021%=      5-min Rain = 0
KSM2 232000Z 31007KT 31/06 A2992 RMK A01 T03110061  RH  021%=      5-min Rain = 0
KSM2 232001Z 31010G16KT 31/07 A2992 RMK A01 T03080066  RH  022%=      5-min Rain = 0
KSM2 232002Z 31010G15KT 31/07 A2992 RMK A01 T03120065  RH  021%=      5-min Rain = 0
KSM2 232003Z 32011G16KT 31/06 A2992 RMK A01 T03140064  RH  021%=      5-min Rain = 0
KSM2 232004Z 33014G22KT 32/06 A2992 RMK A01 T03170056  RH  020%=      5-min Rain = 0
KSM2 232005Z 31017G23KT 31/06 A2992 RMK A01 T03130060  RH  020%=      5-min Rain = 0
KSM2 232006Z 32017G22KT 31/06 A2992 RMK A01 T03110060  RH  021%=      5-min Rain = 0
KSM2 232007Z 31009KT 31/06 A2992 RMK A01 T03140058  RH  020%=      5-min Rain = 0
KSM2 232008Z 30010G17KT 31/06 A2992 RMK A01 T03110059  RH  021%=      5-min Rain = 0
KSM2 232009Z 31013KT 31/06 A2992 RMK A01 T03120059  RH  020%=      5-min Rain = 0
KSM2 232010Z 32013KT 31/06 A2992 RMK A01 T03100061  RH  021%=      5-min Rain = 0
KSM2 232011Z 31012KT 31/06 A2992 RMK A01 T03100062  RH  021%=      5-min Rain = 0
KSM2 232012Z 30007KT 31/06 A2992 RMK A01 T03090062  RH  021%=      5-min Rain = 0
KSM2 232013Z 33010KT 31/06 A2992 RMK A01 T03090061  RH  021%=      5-min Rain = 0
KSM2 232014Z 33010KT 31/06 A2992 RMK A01 T03110058  RH  020%=      5-min Rain = 0
KSM2 232015Z 34008KT 31/06 A2992 RMK A01 T03110061  RH  021%=      5-min Rain = 0
KSM2 232016Z 33008KT 31/06 A2992 RMK A01 T03120060  RH  021%=      5-min Rain = 0
KSM2 232017Z 34010G19KT 31/07 A2991 RMK A01 T03130065  RH  021%=      5-min Rain = 0
KSM2 232018Z 29014G19KT 32/07 A2991 RMK A01 T03200067  RH  021%=      5-min Rain = 0
KSM2 232019Z 32012G19KT 32/06 A2992 RMK A01 T03200059  RH  019%=      5-min Rain = 0
KSM2 232020Z 30019KT 32/06 A2991 RMK A01 T03200060  RH  020%=      5-min Rain = 0
KSM2 232021Z 29017KT 32/06 A2992 RMK A01 T03210058  RH  019%=      5-min Rain = 0
KSM2 232022Z 29018KT 32/06 A2992 RMK A01 T03220057  RH  019%=      5-min Rain = 0
KSM2 232023Z 30015KT 32/05 A2992 RMK A01 T03180052  RH  019%=      5-min Rain = 0
KSM2 232024Z 29011KT 32/05 A2992 RMK A01 T03150053  RH  019%=      5-min Rain = 0
KSM2 232025Z 29009KT 31/06 A2992 RMK A01 T03130056  RH  020%=      5-min Rain = 0
KSM2 232026Z 30003KT 31/05 A2992 RMK A01 T03100052  RH  020%=      5-min Rain = 0
KSM2 232027Z 30005KT 31/05 A2991 RMK A01 T03080054  RH  020%=      5-min Rain = 0
KSM2 232028Z 30003KT 31/05 A2991 RMK A01 T03090052  RH  020%=      5-min Rain = 0
KSM2 232029Z 29007G12KT 31/06 A2991 RMK A01 T03090056  RH  020%=      5-min Rain = 0
KSM2 232030Z 32014G20KT 31/06 A2991 RMK A01 T03110057  RH  020%=      5-min Rain = 0
KSM2 232031Z 30014KT 32/06 A2991 RMK A01 T03170058  RH  020%=      5-min Rain = 0
KSM2 232032Z 29014KT 32/06 A2991 RMK A01 T03210059  RH  019%=      5-min Rain = 0
KSM2 232033Z 29012KT 32/06 A2991 RMK A01 T03200055  RH  019%=      5-min Rain = 0
KSM2 232034Z 28011KT 31/05 A2991 RMK A01 T03130053  RH  019%=      5-min Rain = 0
KSM2 232035Z 28012KT 31/06 A2991 RMK A01 T03130063  RH  021%=      5-min Rain = 0
KSM2 232036Z 31010KT 32/06 A2991 RMK A01 T03160058  RH  020%=      5-min Rain = 0
KSM2 232037Z 31010KT 32/06 A2991 RMK A01 T03160060  RH  020%=      5-min Rain = 0
KSM2 232038Z 29012KT 32/06 A2991 RMK A01 T03150058  RH  020%=      5-min Rain = 0
KSM2 232039Z 29007KT 32/06 A2991 RMK A01 T03160055  RH  019%=      5-min Rain = 0
KSM2 232040Z 28006KT 31/06 A2991 RMK A01 T03140055  RH  020%=      5-min Rain = 0
KSM2 232041Z 27010KT 31/06 A2991 RMK A01 T03130061  RH  021%=      5-min Rain = 0
KSM2 232042Z 27006KT 31/06 A2991 RMK A01 T03130058  RH  020%=      5-min Rain = 0
KSM2 232043Z 28006KT 31/06 A2991 RMK A01 T03120056  RH  020%=      5-min Rain = 0
KSM2 232044Z 29006KT 31/06 A2991 RMK A01 T03100062  RH  021%=      5-min Rain = 0
KSM2 232045Z 29005KT 31/07 A2991 RMK A01 T03130065  RH  021%=      5-min Rain = 0
KSM2 232046Z 28008KT 32/07 A2991 RMK A01 T03160069  RH  021%=      5-min Rain = 0
KSM2 232047Z 28007KT 32/06 A2991 RMK A01 T03160058  RH  020%=      5-min Rain = 0
KSM2 232048Z 27006KT 31/06 A2991 RMK A01 T03130061  RH  021%=      5-min Rain = 0
KSM2 232049Z 30011KT 31/06 A2991 RMK A01 T03140062  RH  021%=      5-min Rain = 0
KSM2 232050Z 30014G20KT 32/06 A2991 RMK A01 T03220061  RH  020%=      5-min Rain = 0
KSM2 232051Z 32016KT 33/06 A2991 RMK A01 T03270055  RH  018%=      5-min Rain = 0
KSM2 232052Z 30015KT 33/06 A2991 RMK A01 T03270055  RH  018%=      5-min Rain = 0
KSM2 232053Z 30015KT 33/05 A2991 RMK A01 T03250050  RH  018%=      5-min Rain = 0
KSM2 232054Z 31013KT 32/05 A2991 RMK A01 T03210050  RH  018%=      5-min Rain = 0
KSM2 232055Z 32012KT 32/05 A2991 RMK A01 T03180047  RH  018%=      5-min Rain = 0
KSM2 232056Z 33010KT 32/05 A2991 RMK A01 T03150048  RH  019%=      5-min Rain = 0
KSM2 232057Z 33012KT 31/05 A2991 RMK A01 T03130049  RH  019%=      5-min Rain = 0
KSM2 232058Z 34011KT 32/05 A2991 RMK A01 T03180049  RH  018%=      5-min Rain = 0
KSM2 232059Z 32008KT 32/05 A2991 RMK A01 T03160046  RH  018%=      5-min Rain = 0
KSM2 232100Z 32012G17KT 32/05 A2991 RMK A01 T03160048  RH  018%=      5-min Rain = 0
KSM2 232101Z 30011G16KT 32/05 A2991 RMK A01 T03150045  RH  018%=      5-min Rain = 0
KSM2 232102Z 31009KT 31/05 A2991 RMK A01 T03110046  RH  019%=      5-min Rain = 0
KSM2 232103Z 33007KT 31/04 A2991 RMK A01 T03100043  RH  018%=      5-min Rain = 0
KSM2 232104Z 31006KT 31/05 A2991 RMK A01 T03090045  RH  019%=      5-min Rain = 0
KSM2 232105Z 27004KT 31/05 A2991 RMK A01 T03080047  RH  019%=      5-min Rain = 0
KSM2 232106Z 24006KT 31/05 A299 RMK A01 T03070054  RH  020%=      5-min Rain = 0
KSM2 232107Z 24008KT 31/05 A299 RMK A01 T03080052  RH  020%=      5-min Rain = 0
KSM2 232108Z 22005KT 31/05 A299 RMK A01 T03080054  RH  020%=      5-min Rain = 0
KSM2 232109Z 27004KT 31/05 A299 RMK A01 T03070053  RH  020%=      5-min Rain = 0
KSM2 232110Z 26003KT 31/05 A299 RMK A01 T03080049  RH  020%=      5-min Rain = 0
KSM2 232111Z 23002KT 31/06 A299 RMK A01 T03080060  RH  021%=      5-min Rain = 0
KSM2 232112Z 24003KT 31/05 A299 RMK A01 T03100050  RH  020%=      5-min Rain = 0
KSM2 232113Z 29003KT 31/05 A299 RMK A01 T03100052  RH  020%=      5-min Rain = 0
KSM2 232114Z 31005KT 31/05 A299 RMK A01 T03110052  RH  020%=      5-min Rain = 0
KSM2 232115Z 29008KT 32/05 A299 RMK A01 T03160051  RH  019%=      5-min Rain = 0
KSM2 232116Z 30007KT 32/05 A299 RMK A01 T03150049  RH  019%=      5-min Rain = 0
KSM2 232117Z 32010KT 31/05 A299 RMK A01 T03130047  RH  019%=      5-min Rain = 0
KSM2 232118Z 32010KT 31/05 A299 RMK A01 T03140045  RH  018%=      5-min Rain = 0
KSM2 232119Z 32007KT 32/04 A299 RMK A01 T03150044  RH  018%=      5-min Rain = 0
KSM2 232120Z 30005KT 31/05 A299 RMK A01 T03130048  RH  019%=      5-min Rain = 0
KSM2 232121Z 35004KT 31/05 A299 RMK A01 T03130048  RH  019%=      5-min Rain = 0
KSM2 232122Z 33010KT 32/05 A299 RMK A01 T03150050  RH  019%=      5-min Rain = 0
KSM2 232123Z 33014KT 32/05 A2989 RMK A01 T03200049  RH  018%=      5-min Rain = 0
KSM2 232124Z 29012KT 32/05 A2989 RMK A01 T03210051  RH  018%=      5-min Rain = 0
KSM2 232125Z 29010KT 32/05 A299 RMK A01 T03220048  RH  018%=      5-min Rain = 0
KSM2 232126Z 30009KT 32/04 A299 RMK A01 T03220041  RH  017%=      5-min Rain = 0
KSM2 232127Z 30009KT 32/05 A2989 RMK A01 T03190047  RH  018%=      5-min Rain = 0
KSM2 232128Z 33011KT 32/05 A2989 RMK A01 T03190048  RH  018%=      5-min Rain = 0
KSM2 232129Z 32012KT 32/05 A2989 RMK A01 T03230047  RH  018%=      5-min Rain = 0
KSM2 232130Z 32013KT 32/04 A2989 RMK A01 T03220043  RH  017%=      5-min Rain = 0
KSM2 232131Z 34014KT 32/05 A2989 RMK A01 T03200045  RH  018%=      5-min Rain = 0
KSM2 232132Z 33011KT 32/04 A2989 RMK A01 T03190041  RH  017%=      5-min Rain = 0
KSM2 232133Z 35011KT 32/04 A2989 RMK A01 T03150044  RH  018%=      5-min Rain = 0
KSM2 232134Z 01009KT 32/05 A2989 RMK A01 T03150048  RH  019%=      5-min Rain = 0
KSM2 232135Z 35009G14KT 32/05 A2989 RMK A01 T03160053  RH  019%=      5-min Rain = 0
KSM2 232136Z 34012KT 32/05 A2989 RMK A01 T03190049  RH  018%=      5-min Rain = 0
KSM2 232137Z 33014KT 32/05 A2989 RMK A01 T03220047  RH  018%=      5-min Rain = 0
KSM2 232138Z 32013KT 32/05 A2989 RMK A01 T03240046  RH  017%=      5-min Rain = 0
KSM2 232139Z 32012KT 32/04 A2989 RMK A01 T03220043  RH  017%=      5-min Rain = 0
KSM2 232140Z 31015KT 32/05 A2989 RMK A01 T03220047  RH  018%=      5-min Rain = 0
KSM2 232141Z 30014KT 32/04 A2989 RMK A01 T03240044  RH  017%=      5-min Rain = 0
KSM2 232142Z 31011KT 32/04 A2989 RMK A01 T03230042  RH  017%=      5-min Rain = 0
KSM2 232143Z 30008KT 32/04 A2989 RMK A01 T03200043  RH  017%=      5-min Rain = 0
KSM2 232144Z 31011KT 32/04 A2989 RMK A01 T03200042  RH  017%=      5-min Rain = 0
KSM2 232145Z 29010KT 32/04 A2989 RMK A01 T03200042  RH  017%=      5-min Rain = 0
KSM2 232146Z 28008KT 32/04 A2989 RMK A01 T03180044  RH  018%=      5-min Rain = 0
KSM2 232147Z 29005KT 31/04 A2989 RMK A01 T03140044  RH  018%=      5-min Rain = 0
KSM2 232148Z 30009KT 31/04 A2989 RMK A01 T03140044  RH  018%=      5-min Rain = 0
KSM2 232149Z 32010KT 32/04 A2988 RMK A01 T03170040  RH  017%=      5-min Rain = 0
KSM2 232150Z 29014G22KT 32/04 A2988 RMK A01 T03190042  RH  017%=      5-min Rain = 0
KSM2 232151Z 24010KT 32/03 A2988 RMK A01 T03210030  RH  016%=      5-min Rain = 0
KSM2 232152Z 24009KT 32/03 A2988 RMK A01 T03210033  RH  016%=      5-min Rain = 0
KSM2 232153Z 25009KT 32/02 A2988 RMK A01 T03200016  RH  014%=      5-min Rain = 0
KSM2 232154Z 23009KT 32/02 A2988 RMK A01 T03200024  RH  015%=      5-min Rain = 0
KSM2 232155Z 25014G19KT 32/04 A2988 RMK A01 T03220040  RH  017%=      5-min Rain = 0
KSM2 232156Z 30013KT 33/04 A2988 RMK A01 T03260038  RH  016%=      5-min Rain = 0
KSM2 232157Z 31016KT 33/04 A2988 RMK A01 T03330037  RH  016%=      5-min Rain = 0
KSM2 232158Z 31015KT 33/05 A2988 RMK A01 T03310046  RH  017%=      5-min Rain = 0
KSM2 232159Z 30012KT 33/04 A2988 RMK A01 T03280042  RH  017%=      5-min Rain = 0
KSM2 232200Z 29011KT 33/04 A2988 RMK A01 T03270042  RH  017%=      5-min Rain = 0
KSM2 232201Z 30013KT 33/05 A2988 RMK A01 T03260047  RH  017%=      5-min Rain = 0
KSM2 232202Z 31010KT 32/05 A2988 RMK A01 T03240046  RH  017%=      5-min Rain = 0
KSM2 232203Z 31012KT 32/05 A2988 RMK A01 T03240046  RH  017%=      5-min Rain = 0
KSM2 232204Z 30012KT 33/04 A2988 RMK A01 T03260038  RH  016%=      5-min Rain = 0
KSM2 232205Z 28013KT 33/03 A2988 RMK A01 T03260029  RH  015%=      5-min Rain = 0
KSM2 232206Z 30014KT 33/02 A2988 RMK A01 T03300019  RH  014%=      5-min Rain = 0
KSM2 232207Z 29016G22KT 33/02 A2988 RMK A01 T03300015  RH  014%=      5-min Rain = 0
KSM2 232208Z 28017KT 33/02 A2988 RMK A01 T03290015  RH  014%=      5-min Rain = 0
KSM2 232209Z 28012KT 33/02 A2988 RMK A01 T03270019  RH  014%=      5-min Rain = 0
KSM2 232210Z 28010KT 33/02 A2988 RMK A01 T03270019  RH  014%=      5-min Rain = 0
KSM2 232211Z 27013G20KT 33/03 A2988 RMK A01 T03270027  RH  015%=      5-min Rain = 0
KSM2 232212Z 27018KT 33/02 A2988 RMK A01 T03300024  RH  014%=      5-min Rain = 0
KSM2 232213Z 27017KT 33/02 A2988 RMK A01 T03310024  RH  014%=      5-min Rain = 0
KSM2 232214Z 27015KT 33/02 A2988 RMK A01 T03290022  RH  014%=      5-min Rain = 0
KSM2 232215Z 28012KT 33/02 A2988 RMK A01 T03270024  RH  015%=      5-min Rain = 0
KSM2 232216Z 28013KT 33/02 A2988 RMK A01 T03280024  RH  015%=      5-min Rain = 0
KSM2 232217Z 27011KT 33/02 A2988 RMK A01 T03270020  RH  014%=      5-min Rain = 0
KSM2 232218Z 28013KT 32/02 A2988 RMK A01 T03240020  RH  015%=      5-min Rain = 0
KSM2 232219Z 29013KT 33/02 A2987 RMK A01 T03250019  RH  014%=      5-min Rain = 0
KSM2 232220Z 28016KT 33/01 A2987 RMK A01 T03260010  RH  013%=      5-min Rain = 0
KSM2 232221Z 26017KT 33/02 A2987 RMK A01 T03270015  RH  014%=      5-min Rain = 0
KSM2 232222Z 27018KT 33/01 A2987 RMK A01 T03270013  RH  014%=      5-min Rain = 0
KSM2 232223Z 27013KT 33/01 A2987 RMK A01 T03260012  RH  014%=      5-min Rain = 0
KSM2 232224Z 28013KT 33/01 A2987 RMK A01 T03260013  RH  014%=      5-min Rain = 0
KSM2 232225Z 27013KT 33/01 A2987 RMK A01 T03260011  RH  013%=      5-min Rain = 0
KSM2 232226Z 27014KT 33/01 A2987 RMK A01 T03270010  RH  013%=      5-min Rain = 0
KSM2 232227Z 26012KT 33/01 A2987 RMK A01 T03270009  RH  013%=      5-min Rain = 0
KSM2 232228Z 28013KT 33/01 A2987 RMK A01 T03260013  RH  014%=      5-min Rain = 0
KSM2 232229Z 28012KT 33/02 A2987 RMK A01 T03290017  RH  014%=      5-min Rain = 0
KSM2 232230Z 28017KT 33/02 A2987 RMK A01 T03320018  RH  014%=      5-min Rain = 0
KSM2 232231Z 28015KT 33/01 A2987 RMK A01 T03310013  RH  013%=      5-min Rain = 0
KSM2 232232Z 30018G23KT 33/02 A2987 RMK A01 T03280015  RH  014%=      5-min Rain = 0
KSM2 232233Z 29015G21KT 33/01 A2987 RMK A01 T03300010  RH  013%=      5-min Rain = 0
KSM2 232234Z 29014KT 33/01 A2987 RMK A01 T03250011  RH  014%=      5-min Rain = 0
KSM2 232235Z 27015KT 33/02 A2987 RMK A01 T03290023  RH  014%=      5-min Rain = 0
KSM2 232236Z 26015KT 33/03 A2987 RMK A01 T03320025  RH  014%=      5-min Rain = 0
KSM2 232237Z 25015KT 33/02 A2987 RMK A01 T03290022  RH  014%=      5-min Rain = 0
KSM2 232238Z 25014G19KT 33/03 A2987 RMK A01 T03270025  RH  015%=      5-min Rain = 0
KSM2 232239Z 26017KT 33/02 A2987 RMK A01 T03270021  RH  014%=      5-min Rain = 0
KSM2 232240Z 27017KT 33/02 A2987 RMK A01 T03260018  RH  014%=      5-min Rain = 0
KSM2 232241Z 27015KT 33/02 A2987 RMK A01 T03250015  RH  014%=      5-min Rain = 0
KSM2 232242Z 27014KT 33/02 A2987 RMK A01 T03260020  RH  014%=      5-min Rain = 0
KSM2 232243Z 28016KT 33/01 A2987 RMK A01 T03280014  RH  014%=      5-min Rain = 0
KSM2 232244Z 27014KT 33/01 A2987 RMK A01 T03270013  RH  014%=      5-min Rain = 0
KSM2 232245Z 26012KT 33/02 A2986 RMK A01 T03260015  RH  014%=      5-min Rain = 0
KSM2 232246Z 26012G17KT 32/02 A2986 RMK A01 T03240016  RH  014%=      5-min Rain = 0
KSM2 232247Z 26009KT 32/02 A2986 RMK A01 T03220016  RH  014%=      5-min Rain = 0
KSM2 232248Z 29011KT 32/02 A2986 RMK A01 T03220017  RH  014%=      5-min Rain = 0
KSM2 232249Z 28012KT 33/02 A2986 RMK A01 T03260015  RH  014%=      5-min Rain = 0
KSM2 232250Z 28014KT 33/02 A2986 RMK A01 T03280017  RH  014%=      5-min Rain = 0
KSM2 232251Z 28015KT 33/02 A2986 RMK A01 T03270018  RH  014%=      5-min Rain = 0
KSM2 232252Z 28013KT 33/02 A2986 RMK A01 T03280017  RH  014%=      5-min Rain = 0
KSM2 232253Z 29018G24KT 33/02 A2986 RMK A01 T03280017  RH  014%=      5-min Rain = 0
KSM2 232254Z 27014KT 33/02 A2986 RMK A01 T03280016  RH  014%=      5-min Rain = 0
KSM2 232255Z 26015KT 33/02 A2986 RMK A01 T03300021  RH  014%=      5-min Rain = 0
KSM2 232256Z 27017KT 33/02 A2986 RMK A01 T03280017  RH  014%=      5-min Rain = 0
KSM2 232257Z 26015KT 33/02 A2986 RMK A01 T03260018  RH  014%=      5-min Rain = 0
KSM2 232258Z 27017KT 33/02 A2986 RMK A01 T03260020  RH  014%=      5-min Rain = 0
KSM2 232259Z 28014KT 33/02 A2986 RMK A01 T03250015  RH  014%=      5-min Rain = 0
KSM2 232300Z 27014KT 33/02 A2986 RMK A01 T03270015  RH  014%=      5-min Rain = 0
KSM2 232301Z 26014KT 33/02 A2986 RMK A01 T03250016  RH  014%=      5-min Rain = 0
KSM2 232302Z 26015KT 32/01 A2986 RMK A01 T03240014  RH  014%=      5-min Rain = 0
KSM2 232303Z 26011KT 32/01 A2986 RMK A01 T03220013  RH  014%=      5-min Rain = 0
KSM2 232304Z 28010KT 32/02 A2986 RMK A01 T03210016  RH  014%=      5-min Rain = 0
KSM2 232305Z 27013KT 32/02 A2986 RMK A01 T03230015  RH  014%=      5-min Rain = 0
KSM2 232306Z 29015KT 32/02 A2986 RMK A01 T03240018  RH  014%=      5-min Rain = 0
KSM2 232307Z 30012KT 33/01 A2986 RMK A01 T03260014  RH  014%=      5-min Rain = 0
KSM2 232308Z 28008KT 33/02 A2986 RMK A01 T03260019  RH  014%=      5-min Rain = 0
KSM2 232309Z 29010KT 33/02 A2986 RMK A01 T03270015  RH  014%=      5-min Rain = 0
KSM2 232310Z 29011KT 33/02 A2986 RMK A01 T03280017  RH  014%=      5-min Rain = 0
KSM2 232311Z 29014KT 33/02 A2986 RMK A01 T03290020  RH  014%=      5-min Rain = 0
KSM2 232312Z 29015KT 33/02 A2985 RMK A01 T03310020  RH  014%=      5-min Rain = 0
KSM2 232313Z 29012KT 33/02 A2985 RMK A01 T03320018  RH  014%=      5-min Rain = 0
KSM2 232314Z 28013KT 33/02 A2985 RMK A01 T03330016  RH  013%=      5-min Rain = 0
KSM2 232315Z 29017KT 33/02 A2985 RMK A01 T03310016  RH  014%=      5-min Rain = 0
KSM2 232316Z 28015KT 33/01 A2986 RMK A01 T03290012  RH  013%=      5-min Rain = 0
KSM2 232317Z 27015G20KT 33/01 A2986 RMK A01 T03260011  RH  013%=      5-min Rain = 0
KSM2 232318Z 27015G20KT 33/02 A2986 RMK A01 T03250019  RH  014%=      5-min Rain = 0
KSM2 232319Z 28016KT 33/02 A2985 RMK A01 T03290017  RH  014%=      5-min Rain = 0
KSM2 232320Z 27018KT 33/01 A2985 RMK A01 T03290011  RH  013%=      5-min Rain = 0
KSM2 232321Z 28017KT 33/01 A2985 RMK A01 T03270013  RH  014%=      5-min Rain = 0
KSM2 232322Z 27019KT 33/01 A2985 RMK A01 T03260011  RH  013%=      5-min Rain = 0
KSM2 232323Z 28015KT 33/01 A2985 RMK A01 T03260013  RH  014%=      5-min Rain = 0
KSM2 232324Z 28013KT 33/01 A2985 RMK A01 T03270012  RH  013%=      5-min Rain = 0
KSM2 232325Z 28011KT 33/01 A2985 RMK A01 T03270008  RH  013%=      5-min Rain = 0
KSM2 232326Z 29009KT 33/01 A2985 RMK A01 T03250010  RH  013%=      5-min Rain = 0
KSM2 232327Z 27010KT 33/02 A2985 RMK A01 T03260016  RH  014%=      5-min Rain = 0
KSM2 232328Z 26012KT 33/01 A2985 RMK A01 T03260014  RH  014%=      5-min Rain = 0
KSM2 232329Z 27013KT 32/01 A2985 RMK A01 T03240012  RH  014%=      5-min Rain = 0
KSM2 232330Z 27012KT 32/01 A2985 RMK A01 T03230012  RH  014%=      5-min Rain = 0
KSM2 232331Z 27011KT 32/02 A2985 RMK A01 T03220015  RH  014%=      5-min Rain = 0
KSM2 232332Z 28015KT 32/01 A2985 RMK A01 T03230010  RH  014%=      5-min Rain = 0
KSM2 232333Z 28017KT 33/01 A2985 RMK A01 T03250009  RH  013%=      5-min Rain = 0
KSM2 232334Z 28015KT 33/01 A2985 RMK A01 T03270007  RH  013%=      5-min Rain = 0
KSM2 232335Z 28015KT 33/01 A2985 RMK A01 T03270007  RH  013%=      5-min Rain = 0
KSM2 232336Z 29013KT 33/01 A2985 RMK A01 T03270008  RH  013%=      5-min Rain = 0
KSM2 232337Z 28009KT 33/01 A2985 RMK A01 T03270008  RH  013%=      5-min Rain = 0
KSM2 232338Z 25009KT 33/02 A2985 RMK A01 T03270017  RH  014%=      5-min Rain = 0
KSM2 232339Z 24012KT 33/02 A2985 RMK A01 T03260017  RH  014%=      5-min Rain = 0
KSM2 232340Z 26010KT 32/01 A2985 RMK A01 T03230012  RH  014%=      5-min Rain = 0
KSM2 232341Z 27009KT 32/01 A2985 RMK A01 T03210013  RH  014%=      5-min Rain = 0
KSM2 232342Z 26007KT 32/02 A2985 RMK A01 T03220018  RH  015%=      5-min Rain = 0
KSM2 232343Z 27011KT 32/02 A2985 RMK A01 T03230016  RH  014%=      5-min Rain = 0
KSM2 232344Z 28011KT 32/01 A2985 RMK A01 T03230013  RH  014%=      5-min Rain = 0
KSM2 232345Z 29011KT 32/01 A2985 RMK A01 T03240014  RH  014%=      5-min Rain = 0
KSM2 232346Z 28008KT 33/01 A2985 RMK A01 T03270014  RH  014%=      5-min Rain = 0
KSM2 232347Z 28012KT 33/02 A2985 RMK A01 T03290021  RH  014%=      5-min Rain = 0
KSM2 232348Z 29011KT 33/02 A2984 RMK A01 T03290015  RH  014%=      5-min Rain = 0
KSM2 232349Z 30012KT 33/02 A2984 RMK A01 T03280017  RH  014%=      5-min Rain = 0
KSM2 232350Z 29014KT 33/02 A2984 RMK A01 T03270017  RH  014%=      5-min Rain = 0
KSM2 232351Z 29016KT 33/02 A2984 RMK A01 T03280015  RH  014%=      5-min Rain = 0
KSM2 232352Z 29014KT 33/01 A2984 RMK A01 T03290005  RH  013%=      5-min Rain = 0
KSM2 232353Z 28015KT 33/01 A2984 RMK A01 T03270005  RH  013%=      5-min Rain = 0
KSM2 232354Z 27016KT 33/01 A2984 RMK A01 T03270008  RH  013%=      5-min Rain = 0
KSM2 232355Z 26017KT 33/01 A2984 RMK A01 T03260008  RH  013%=      5-min Rain = 0
KSM2 232356Z 27013KT 32/01 A2984 RMK A01 T03240007  RH  013%=      5-min Rain = 0
KSM2 232357Z 27012KT 32/01 A2984 RMK A01 T03240009  RH  013%=      5-min Rain = 0
KSM2 232358Z 26011KT 32/01 A2984 RMK A01 T03230006  RH  013%=      5-min Rain = 0
KSM2 232359Z 25011KT 32/01 A2984 RMK A01 T03210007  RH  013%=      5-min Rain = 0
KSM2 240000Z 26011KT 32/01 A2984 RMK A01 T03200012  RH  014%=      5-min Rain = 0
KSM2 240001Z 26009KT 32/02 A2984 RMK A01 T03210015  RH  014%=      5-min Rain = 0
KSM2 240002Z 27011KT 32/01 A2984 RMK A01 T03220013  RH  014%=      5-min Rain = 0
KSM2 240003Z 28013KT 32/01 A2984 RMK A01 T03220009  RH  014%=      5-min Rain = 0
KSM2 240004Z 27014KT 32/01 A2984 RMK A01 T03240011  RH  014%=      5-min Rain = 0
KSM2 240005Z 26012KT 32/01 A2985 RMK A01 T03240012  RH  014%=      5-min Rain = 0
KSM2 240006Z 27011KT 32/01 A2984 RMK A01 T03230008  RH  013%=      5-min Rain = 0
KSM2 240007Z 26011KT 32/01 A2984 RMK A01 T03220011  RH  014%=      5-min Rain = 0
KSM2 240008Z 26013KT 32/00 A2984 RMK A01 T03220001  RH  013%=      5-min Rain = 0
KSM2 240009Z 26012KT 32/00 A2984 RMK A01 T032100-0  RH  013%=      5-min Rain = 0
KSM2 240010Z 27012KT 32/01 A2985 RMK A01 T03210005  RH  013%=      5-min Rain = 0
KSM2 240011Z 27014KT 32/M00 A2984 RMK A01 T03231002  RH  012%=      5-min Rain = 0
KSM2 240012Z 27013KT 32/M00 A2984 RMK A01 T03231003  RH  012%=      5-min Rain = 0
KSM2 240013Z 26012KT 32/M00 A2984 RMK A01 T03231003  RH  012%=      5-min Rain = 0
KSM2 240014Z 27015KT 32/M00 A2984 RMK A01 T03221001  RH  013%=      5-min Rain = 0
KSM2 240015Z 27017KT 32/M00 A2984 RMK A01 T03221004  RH  012%=      5-min Rain = 0
KSM2 240016Z 26015KT 32/M00 A2985 RMK A01 T03221003  RH  012%=      5-min Rain = 0
KSM2 240017Z 25016KT 32/M00 A2985 RMK A01 T03221002  RH  013%=      5-min Rain = 0
KSM2 240018Z 26013KT 32/M00 A2985 RMK A01 T03211002  RH  013%=      5-min Rain = 0
KSM2 240019Z 26012KT 32/M00 A2985 RMK A01 T03211004  RH  012%=      5-min Rain = 0
KSM2 240020Z 25013KT 32/M01 A2985 RMK A01 T03201005  RH  012%=      5-min Rain = 0
KSM2 240021Z 25014KT 32/M00 A2985 RMK A01 T03201003  RH  013%=      5-min Rain = 0
KSM2 240022Z 26017KT 32/00 A2985 RMK A01 T03200003  RH  013%=      5-min Rain = 0
KSM2 240023Z 27012KT 32/M01 A2985 RMK A01 T03191007  RH  012%=      5-min Rain = 0
KSM2 240024Z 27011KT 32/M00 A2985 RMK A01 T03191002  RH  013%=      5-min Rain = 0
KSM2 240025Z 27012KT 32/M00 A2985 RMK A01 T03191002  RH  013%=      5-min Rain = 0
KSM2 240026Z 27011KT 32/M00 A2985 RMK A01 T03191001  RH  013%=      5-min Rain = 0
KSM2 240027Z 27012KT 32/M00 A2985 RMK A01 T03191003  RH  013%=      5-min Rain = 0
KSM2 240028Z 27011KT 32/00 A2985 RMK A01 T03200002  RH  013%=      5-min Rain = 0
KSM2 240029Z 26012KT 32/00 A2985 RMK A01 T03200000  RH  013%=      5-min Rain = 0
KSM2 240030Z 26012KT 32/00 A2985 RMK A01 T03200001  RH  013%=      5-min Rain = 0
KSM2 240031Z 26014KT 32/M00 A2985 RMK A01 T03191003  RH  013%=      5-min Rain = 0
KSM2 240032Z 27013KT 32/M00 A2985 RMK A01 T03181003  RH  013%=      5-min Rain = 0
KSM2 240033Z 26013KT 32/M00 A2985 RMK A01 T03181001  RH  013%=      5-min Rain = 0
KSM2 240034Z 26011KT 32/00 A2985 RMK A01 T03170001  RH  013%=      5-min Rain = 0
KSM2 240035Z 26014KT 32/M00 A2985 RMK A01 T03171001  RH  013%=      5-min Rain = 0
KSM2 240036Z 26014KT 32/M00 A2985 RMK A01 T03161004  RH  013%=      5-min Rain = 0
KSM2 240037Z 26012KT 32/00 A2985 RMK A01 T03160001  RH  013%=      5-min Rain = 0
KSM2 240038Z 26012KT 32/M00 A2985 RMK A01 T03151002  RH  013%=      5-min Rain = 0
KSM2 240039Z 25012KT 32/M00 A2985 RMK A01 T03161001  RH  013%=      5-min Rain = 0
KSM2 240040Z 26011KT 32/00 A2985 RMK A01 T03150001  RH  013%=      5-min Rain = 0
KSM2 240041Z 26012KT 32/00 A2985 RMK A01 T03160001  RH  013%=      5-min Rain = 0
KSM2 240042Z 27014KT 32/M00 A2985 RMK A01 T03151002  RH  013%=      5-min Rain = 0
KSM2 240043Z 27012KT 32/M00 A2985 RMK A01 T03161003  RH  013%=      5-min Rain = 0
KSM2 240044Z 27011KT 32/M00 A2985 RMK A01 T03151001  RH  013%=      5-min Rain = 0
KSM2 240045Z 28011KT 32/00 A2985 RMK A01 T03150000  RH  013%=      5-min Rain = 0
KSM2 240046Z 27012KT 32/00 A2985 RMK A01 T03150000  RH  013%=      5-min Rain = 0
KSM2 240047Z 27012KT 32/M00 A2985 RMK A01 T03151004  RH  013%=      5-min Rain = 0
KSM2 240048Z 27011KT 32/M00 A2985 RMK A01 T03161001  RH  013%=      5-min Rain = 0
KSM2 240049Z 27011KT 32/M00 A2985 RMK A01 T03161002  RH  013%=      5-min Rain = 0
KSM2 240050Z 27011KT 32/M00 A2985 RMK A01 T03161001  RH  013%=      5-min Rain = 0
KSM2 240051Z 27010KT 32/00 A2985 RMK A01 T031600-0  RH  013%=      5-min Rain = 0
KSM2 240052Z 27010KT 32/00 A2985 RMK A01 T03150001  RH  013%=      5-min Rain = 0
KSM2 240053Z 26012KT 31/00 A2985 RMK A01 T03140000  RH  013%=      5-min Rain = 0
KSM2 240054Z 27011KT 31/M00 A2985 RMK A01 T03141001  RH  013%=      5-min Rain = 0
KSM2 240055Z 27010KT 31/M00 A2985 RMK A01 T03141002  RH  013%=      5-min Rain = 0
KSM2 240056Z 27010KT 31/00 A2985 RMK A01 T03140001  RH  013%=      5-min Rain = 0
KSM2 240057Z 27010KT 31/00 A2985 RMK A01 T03130002  RH  014%=      5-min Rain = 0
KSM2 240058Z 27011KT 31/00 A2985 RMK A01 T03130003  RH  014%=      5-min Rain = 0
KSM2 240059Z 26011KT 31/00 A2985 RMK A01 T031300-0  RH  013%=      5-min Rain = 0
KSM2 240100Z 25009KT 31/01 A2985 RMK A01 T03120007  RH  014%=      5-min Rain = 0
KSM2 240101Z 25011KT 31/00 A2985 RMK A01 T03110004  RH  014%=      5-min Rain = 0
KSM2 240102Z 25008KT 31/01 A2985 RMK A01 T03100006  RH  014%=      5-min Rain = 0
KSM2 240103Z 26007KT 31/01 A2985 RMK A01 T03100009  RH  015%=      5-min Rain = 0
KSM2 240104Z 26007KT 31/01 A2985 RMK A01 T03090011  RH  015%=      5-min Rain = 0
KSM2 240105Z 26008KT 31/01 A2985 RMK A01 T03090008  RH  015%=      5-min Rain = 0
KSM2 240106Z 26008KT 31/01 A2986 RMK A01 T03090005  RH  014%=      5-min Rain = 0
KSM2 240107Z 26008KT 31/00 A2986 RMK A01 T03090004  RH  014%=      5-min Rain = 0
KSM2 240108Z 27007KT 31/01 A2986 RMK A01 T03090007  RH  014%=      5-min Rain = 0
KSM2 240109Z 27007KT 31/01 A2986 RMK A01 T03080008  RH  015%=      5-min Rain = 0
KSM2 240110Z 27007KT 31/01 A2986 RMK A01 T03080006  RH  014%=      5-min Rain = 0
KSM2 240111Z 26007KT 31/01 A2986 RMK A01 T03080009  RH  015%=      5-min Rain = 0
KSM2 240112Z 26008KT 31/01 A2986 RMK A01 T03070010  RH  015%=      5-min Rain = 0
KSM2 240113Z 26009KT 31/01 A2986 RMK A01 T03070007  RH  015%=      5-min Rain = 0
KSM2 240114Z 26010KT 31/01 A2986 RMK A01 T03060006  RH  015%=      5-min Rain = 0
KSM2 240115Z 26009KT 31/01 A2986 RMK A01 T03060009  RH  015%=      5-min Rain = 0
KSM2 240116Z 26011KT 31/01 A2986 RMK A01 T03050008  RH  015%=      5-min Rain = 0
KSM2 240117Z 26011KT 31/01 A2986 RMK A01 T03050006  RH  015%=      5-min Rain = 0
KSM2 240118Z 26012KT 31/00 A2986 RMK A01 T03050003  RH  014%=      5-min Rain = 0
KSM2 240119Z 27010KT 31/00 A2986 RMK A01 T03050004  RH  014%=      5-min Rain = 0
KSM2 240120Z 27009KT 31/01 A2986 RMK A01 T03050005  RH  014%=      5-min Rain = 0
KSM2 240121Z 27009KT 30/01 A2986 RMK A01 T03040006  RH  015%=      5-min Rain = 0
KSM2 240122Z 27009KT 30/01 A2986 RMK A01 T03040006  RH  015%=      5-min Rain = 0
KSM2 240123Z 27009KT 30/01 A2986 RMK A01 T03030006  RH  015%=      5-min Rain = 0
KSM2 240124Z 26010KT 30/01 A2986 RMK A01 T03020006  RH  015%=      5-min Rain = 0
KSM2 240125Z 26009KT 30/01 A2986 RMK A01 T03020005  RH  015%=      5-min Rain = 0
KSM2 240126Z 26010KT 30/01 A2986 RMK A01 T03020005  RH  015%=      5-min Rain = 0
KSM2 240127Z 26009KT 30/00 A2986 RMK A01 T03010004  RH  015%=      5-min Rain = 0
KSM2 240128Z 26010KT 30/01 A2986 RMK A01 T03010006  RH  015%=      5-min Rain = 0
KSM2 240129Z 26009KT 30/01 A2986 RMK A01 T03000006  RH  015%=      5-min Rain = 0
KSM2 240130Z 26009KT 30/01 A2986 RMK A01 T02990005  RH  015%=      5-min Rain = 0
KSM2 240131Z 26009KT 30/01 A2986 RMK A01 T02990007  RH  015%=      5-min Rain = 0
KSM2 240132Z 26009KT 30/01 A2986 RMK A01 T02970007  RH  015%=      5-min Rain = 0
KSM2 240133Z 26008KT 30/01 A2986 RMK A01 T02970007  RH  015%=      5-min Rain = 0
KSM2 240134Z 26008KT 30/01 A2986 RMK A01 T02960008  RH  016%=      5-min Rain = 0
KSM2 240135Z 26008KT 30/01 A2986 RMK A01 T02950008  RH  016%=      5-min Rain = 0
KSM2 240136Z 26007KT 29/01 A2986 RMK A01 T02930010  RH  016%=      5-min Rain = 0
KSM2 240137Z 26008KT 29/01 A2986 RMK A01 T02920010  RH  016%=      5-min Rain = 0
KSM2 240138Z 26007KT 29/01 A2986 RMK A01 T02900010  RH  016%=      5-min Rain = 0
KSM2 240139Z 26007KT 29/01 A2986 RMK A01 T02890010  RH  017%=      5-min Rain = 0
KSM2 240140Z 26007KT 29/01 A2986 RMK A01 T02890009  RH  016%=      5-min Rain = 0
KSM2 240141Z 26007KT 29/01 A2986 RMK A01 T02880012  RH  017%=      5-min Rain = 0
KSM2 240142Z 26007KT 29/01 A2986 RMK A01 T02880013  RH  017%=      5-min Rain = 0
KSM2 240143Z 26006KT 29/01 A2986 RMK A01 T02860013  RH  017%=      5-min Rain = 0
KSM2 240144Z 26007KT 28/01 A2986 RMK A01 T02840012  RH  017%=      5-min Rain = 0
KSM2 240145Z 27007KT 28/01 A2986 RMK A01 T02840012  RH  017%=      5-min Rain = 0
KSM2 240146Z 26007KT 28/01 A2986 RMK A01 T02820013  RH  017%=      5-min Rain = 0
KSM2 240147Z 26007KT 28/01 A2986 RMK A01 T02820013  RH  018%=      5-min Rain = 0
KSM2 240148Z 26007KT 28/01 A2986 RMK A01 T02810014  RH  018%=      5-min Rain = 0
KSM2 240149Z 26007KT 28/02 A2986 RMK A01 T02800015  RH  018%=      5-min Rain = 0
KSM2 240150Z 26006KT 28/02 A2986 RMK A01 T02790015  RH  018%=      5-min Rain = 0
KSM2 240151Z 26006KT 28/02 A2986 RMK A01 T02780016  RH  018%=      5-min Rain = 0
KSM2 240152Z 25006KT 28/02 A2986 RMK A01 T02770016  RH  018%=      5-min Rain = 0
KSM2 240153Z 25006KT 28/02 A2986 RMK A01 T02760018  RH  019%=      5-min Rain = 0
KSM2 240154Z 25006KT 27/02 A2986 RMK A01 T02740019  RH  019%=      5-min Rain = 0
KSM2 240155Z 25006KT 27/02 A2986 RMK A01 T02730020  RH  019%=      5-min Rain = 0
KSM2 240156Z 26006KT 27/02 A2986 RMK A01 T02720020  RH  020%=      5-min Rain = 0
KSM2 240157Z 26005KT 27/02 A2986 RMK A01 T02710020  RH  020%=      5-min Rain = 0
KSM2 240158Z 26005KT 27/02 A2986 RMK A01 T02700021  RH  020%=      5-min Rain = 0
KSM2 240159Z 25005KT 27/02 A2986 RMK A01 T02690021  RH  020%=      5-min Rain = 0
KSM2 240200Z 25005KT 27/02 A2986 RMK A01 T02680024  RH  021%=      5-min Rain = 0
KSM2 240201Z 25005KT 27/02 A2986 RMK A01 T02660023  RH  021%=      5-min Rain = 0
KSM2 240202Z 24005KT 26/03 A2986 RMK A01 T02640026  RH  021%=      5-min Rain = 0
KSM2 240203Z 24005KT 26/03 A2986 RMK A01 T02630026  RH  022%=      5-min Rain = 0
KSM2 240204Z 24005KT 26/03 A2986 RMK A01 T02610028  RH  022%=      5-min Rain = 0
KSM2 240205Z 24005KT 26/03 A2986 RMK A01 T02600028  RH  022%=      5-min Rain = 0
KSM2 240206Z 24005KT 26/03 A2986 RMK A01 T02590030  RH  023%=      5-min Rain = 0
KSM2 240207Z 25005KT 26/03 A2986 RMK A01 T02570030  RH  023%=      5-min Rain = 0
KSM2 240208Z 25005KT 26/03 A2986 RMK A01 T02560031  RH  023%=      5-min Rain = 0
KSM2 240209Z 25005KT 26/03 A2986 RMK A01 T02550030  RH  023%=      5-min Rain = 0
KSM2 240210Z 25005KT 25/03 A2986 RMK A01 T02540029  RH  023%=      5-min Rain = 0
KSM2 240211Z 25005KT 26/03 A2986 RMK A01 T02550029  RH  023%=      5-min Rain = 0
KSM2 240212Z 25006KT 26/03 A2986 RMK A01 T02550029  RH  023%=      5-min Rain = 0
KSM2 240213Z 26006KT 26/03 A2986 RMK A01 T02560028  RH  023%=      5-min Rain = 0
KSM2 240214Z 26006KT 26/03 A2986 RMK A01 T02570027  RH  022%=      5-min Rain = 0
KSM2 240215Z 26005KT 26/02 A2986 RMK A01 T02590023  RH  022%=      5-min Rain = 0
KSM2 240216Z 25005KT 26/02 A2986 RMK A01 T02610023  RH  021%=      5-min Rain = 0
KSM2 240217Z 25005KT 26/02 A2986 RMK A01 T02620022  RH  021%=      5-min Rain = 0
KSM2 240218Z 25005KT 26/02 A2986 RMK A01 T02620021  RH  021%=      5-min Rain = 0
KSM2 240219Z 25005KT 26/02 A2986 RMK A01 T02620021  RH  021%=      5-min Rain = 0
KSM2 240220Z 25005KT 26/02 A2986 RMK A01 T02610023  RH  021%=      5-min Rain = 0
KSM2 240221Z 25004KT 26/02 A2986 RMK A01 T02600022  RH  021%=      5-min Rain = 0
KSM2 240222Z 25004KT 26/03 A2986 RMK A01 T02590025  RH  022%=      5-min Rain = 0
KSM2 240223Z 25004KT 26/03 A2986 RMK A01 T02570025  RH  022%=      5-min Rain = 0
KSM2 240224Z 25005KT 26/03 A2987 RMK A01 T02560026  RH  022%=      5-min Rain = 0
KSM2 240225Z 25004KT 26/03 A2987 RMK A01 T02560028  RH  023%=      5-min Rain = 0
KSM2 240226Z 25004KT 26/03 A2987 RMK A01 T02550030  RH  023%=      5-min Rain = 0
KSM2 240227Z 24004KT 25/03 A2987 RMK A01 T02540032  RH  024%=      5-min Rain = 0
KSM2 240228Z 24004KT 25/03 A2987 RMK A01 T02530029  RH  023%=      5-min Rain = 0
KSM2 240229Z 24004KT 25/03 A2987 RMK A01 T02520030  RH  024%=      5-min Rain = 0
KSM2 240230Z 24004KT 25/03 A2987 RMK A01 T02520031  RH  024%=      5-min Rain = 0
KSM2 240231Z 24004KT 25/03 A2987 RMK A01 T02520032  RH  024%=      5-min Rain = 0
KSM2 240232Z 24004KT 25/03 A2987 RMK A01 T02510033  RH  024%=      5-min Rain = 0
KSM2 240233Z 25004KT 25/03 A2987 RMK A01 T02500031  RH  024%=      5-min Rain = 0
KSM2 240234Z 25004KT 25/03 A2987 RMK A01 T02500028  RH  023%=      5-min Rain = 0
KSM2 240235Z 25004KT 25/03 A2987 RMK A01 T02510026  RH  023%=      5-min Rain = 0
KSM2 240236Z 25004KT 25/03 A2987 RMK A01 T02520027  RH  023%=      5-min Rain = 0
KSM2 240237Z 25003KT 25/03 A2987 RMK A01 T02500028  RH  023%=      5-min Rain = 0
KSM2 240238Z 24003KT 25/03 A2987 RMK A01 T02480025  RH  023%=      5-min Rain = 0
KSM2 240239Z 24003KT 25/03 A2987 RMK A01 T02460025  RH  024%=      5-min Rain = 0
KSM2 240240Z 23003KT 25/03 A2987 RMK A01 T02450026  RH  024%=      5-min Rain = 0
KSM2 240241Z 23003KT 24/03 A2987 RMK A01 T02430030  RH  025%=      5-min Rain = 0
KSM2 240242Z 23003KT 24/03 A2987 RMK A01 T02430033  RH  026%=      5-min Rain = 0
KSM2 240243Z 23003KT 24/03 A2987 RMK A01 T02420034  RH  026%=      5-min Rain = 0
KSM2 240244Z 23003KT 24/03 A2987 RMK A01 T02420031  RH  025%=      5-min Rain = 0
KSM2 240245Z 23003KT 24/03 A2987 RMK A01 T02420029  RH  025%=      5-min Rain = 0
KSM2 240246Z 22003KT 24/03 A2987 RMK A01 T02420029  RH  025%=      5-min Rain = 0
KSM2 240247Z 22003KT 24/03 A2987 RMK A01 T02430030  RH  025%=      5-min Rain = 0
KSM2 240248Z 22003KT 24/03 A2987 RMK A01 T02430033  RH  025%=      5-min Rain = 0
KSM2 240249Z 22004KT 24/04 A2987 RMK A01 T02430038  RH  026%=      5-min Rain = 0
KSM2 240250Z 22004KT 24/03 A2987 RMK A01 T02430032  RH  025%=      5-min Rain = 0
KSM2 240251Z 22004KT 24/03 A2987 RMK A01 T02440031  RH  025%=      5-min Rain = 0
KSM2 240252Z 22004KT 24/04 A2987 RMK A01 T02440035  RH  026%=      5-min Rain = 0
KSM2 240253Z 21005KT 25/04 A2987 RMK A01 T02450035  RH  025%=      5-min Rain = 0
KSM2 240254Z 22005KT 25/03 A2987 RMK A01 T02470032  RH  025%=      5-min Rain = 0
KSM2 240255Z 22006KT 25/03 A2987 RMK A01 T02480033  RH  025%=      5-min Rain = 0
KSM2 240256Z 22006KT 25/04 A2987 RMK A01 T02480036  RH  025%=      5-min Rain = 0
KSM2 240257Z 22006KT 25/04 A2987 RMK A01 T02480037  RH  025%=      5-min Rain = 0
KSM2 240258Z 22006KT 25/04 A2987 RMK A01 T02460035  RH  025%=      5-min Rain = 0
KSM2 240259Z 22006KT 25/04 A2987 RMK A01 T02460035  RH  025%=      5-min Rain = 0
KSM2 240300Z 21006KT 25/04 A2987 RMK A01 T02450036  RH  026%=      5-min Rain = 0
KSM2 240301Z 21006KT 25/04 A2988 RMK A01 T02450035  RH  026%=      5-min Rain = 0
KSM2 240302Z 21006KT 24/04 A2988 RMK A01 T02430038  RH  026%=      5-min Rain = 0
KSM2 240303Z 21006KT 24/04 A2988 RMK A01 T02420037  RH  026%=      5-min Rain = 0
KSM2 240304Z 21006KT 24/04 A2988 RMK A01 T02410039  RH  027%=      5-min Rain = 0
KSM2 240305Z 21005KT 24/04 A2988 RMK A01 T02390041  RH  027%=      5-min Rain = 0
KSM2 240306Z 21006KT 24/04 A2988 RMK A01 T02390039  RH  027%=      5-min Rain = 0
KSM2 240307Z 21006KT 24/04 A2988 RMK A01 T02390040  RH  027%=      5-min Rain = 0
KSM2 240308Z 21006KT 24/04 A2988 RMK A01 T02380037  RH  027%=      5-min Rain = 0
KSM2 240309Z 22006KT 24/04 A2988 RMK A01 T02380037  RH  027%=      5-min Rain = 0
KSM2 240310Z 22006KT 24/03 A2988 RMK A01 T02380034  RH  026%=      5-min Rain = 0
KSM2 240311Z 23006KT 24/03 A2988 RMK A01 T02390033  RH  026%=      5-min Rain = 0
KSM2 240312Z 23006KT 24/04 A2988 RMK A01 T02410035  RH  026%=      5-min Rain = 0
KSM2 240313Z 23005KT 24/04 A2988 RMK A01 T02420038  RH  027%=      5-min Rain = 0
KSM2 240314Z 23005KT 24/04 A2988 RMK A01 T02410036  RH  026%=      5-min Rain = 0
KSM2 240315Z 23006KT 24/03 A2988 RMK A01 T02410032  RH  026%=      5-min Rain = 0
KSM2 240316Z 23006KT 24/03 A2988 RMK A01 T02420032  RH  025%=      5-min Rain = 0
KSM2 240317Z 23006KT 24/03 A2988 RMK A01 T02440034  RH  025%=      5-min Rain = 0
KSM2 240318Z 23005KT 24/03 A2988 RMK A01 T02440033  RH  025%=      5-min Rain = 0
KSM2 240319Z 23005KT 24/04 A2988 RMK A01 T02440035  RH  026%=      5-min Rain = 0
KSM2 240320Z 23005KT 24/03 A2989 RMK A01 T02440033  RH  025%=      5-min Rain = 0
KSM2 240321Z 23005KT 24/04 A2989 RMK A01 T02430036  RH  026%=      5-min Rain = 0
KSM2 240322Z 23005KT 24/04 A2989 RMK A01 T02420035  RH  026%=      5-min Rain = 0
KSM2 240323Z 23005KT 24/03 A2989 RMK A01 T02410031  RH  025%=      5-min Rain = 0
KSM2 240324Z 24005KT 24/03 A2989 RMK A01 T02410028  RH  025%=      5-min Rain = 0
KSM2 240325Z 24005KT 24/03 A2989 RMK A01 T02410029  RH  025%=      5-min Rain = 0
KSM2 240326Z 23004KT 24/03 A2989 RMK A01 T02410032  RH  026%=      5-min Rain = 0
KSM2 240327Z 23005KT 24/04 A2989 RMK A01 T02400035  RH  026%=      5-min Rain = 0
KSM2 240328Z 23005KT 24/04 A2989 RMK A01 T02390038  RH  027%=      5-min Rain = 0
KSM2 240329Z 24004KT 24/04 A2989 RMK A01 T02370039  RH  028%=      5-min Rain = 0
KSM2 240330Z 24004KT 24/04 A2989 RMK A01 T02360040  RH  028%=      5-min Rain = 0
KSM2 240331Z 24003KT 23/04 A2989 RMK A01 T02340041  RH  028%=      5-min Rain = 0
KSM2 240332Z 26002KT 23/04 A2989 RMK A01 T02300039  RH  029%=      5-min Rain = 0
KSM2 240333Z 25002KT 23/04 A2989 RMK A01 T02260036  RH  029%=      5-min Rain = 0
KSM2 240334Z 26002KT 22/04 A2989 RMK A01 T02240035  RH  029%=      5-min Rain = 0
KSM2 240335Z 25003KT 22/04 A2989 RMK A01 T02240035  RH  029%=      5-min Rain = 0
KSM2 240336Z 25003KT 22/04 A2989 RMK A01 T02240035  RH  029%=      5-min Rain = 0
KSM2 240337Z 25002KT 22/04 A2989 RMK A01 T02240035  RH  029%=      5-min Rain = 0
KSM2 240338Z 25002KT 22/04 A2989 RMK A01 T02240041  RH  030%=      5-min Rain = 0
KSM2 240339Z 24003KT 22/04 A299 RMK A01 T02210040  RH  031%=      5-min Rain = 0
KSM2 240340Z 24003KT 22/04 A299 RMK A01 T02200040  RH  031%=      5-min Rain = 0
KSM2 240341Z 24004KT 22/04 A299 RMK A01 T02180040  RH  031%=      5-min Rain = 0
KSM2 240342Z 24004KT 22/04 A299 RMK A01 T02170039  RH  031%=      5-min Rain = 0
KSM2 240343Z 24004KT 22/04 A299 RMK A01 T02170039  RH  031%=      5-min Rain = 0
KSM2 240344Z 24005KT 22/04 A299 RMK A01 T02170038  RH  031%=      5-min Rain = 0
KSM2 240345Z 24005KT 22/04 A299 RMK A01 T02180039  RH  031%=      5-min Rain = 0
KSM2 240346Z 24004KT 22/04 A299 RMK A01 T02200036  RH  030%=      5-min Rain = 0
KSM2 240347Z 25005KT 22/03 A299 RMK A01 T02220033  RH  029%=      5-min Rain = 0
KSM2 240348Z 24005KT 23/03 A299 RMK A01 T02260032  RH  028%=      5-min Rain = 0
KSM2 240349Z 25005KT 23/03 A299 RMK A01 T02280031  RH  028%=      5-min Rain = 0
KSM2 240350Z 25005KT 23/03 A299 RMK A01 T02300033  RH  028%=      5-min Rain = 0
KSM2 240351Z 24006KT 23/03 A299 RMK A01 T02300033  RH  028%=      5-min Rain = 0
KSM2 240352Z 24006KT 23/03 A299 RMK A01 T02300031  RH  027%=      5-min Rain = 0
KSM2 240353Z 24006KT 23/03 A299 RMK A01 T02300032  RH  027%=      5-min Rain = 0
KSM2 240354Z 24006KT 23/03 A299 RMK A01 T02310034  RH  028%=      5-min Rain = 0
KSM2 240355Z 24006KT 23/04 A299 RMK A01 T02300036  RH  028%=      5-min Rain = 0
KSM2 240356Z 24006KT 23/04 A299 RMK A01 T02290038  RH  029%=      5-min Rain = 0
KSM2 240357Z 24006KT 23/04 A299 RMK A01 T02280039  RH  029%=      5-min Rain = 0
KSM2 240358Z 25006KT 23/04 A2991 RMK A01 T02280036  RH  029%=      5-min Rain = 0
KSM2 240359Z 26006KT 23/04 A2991 RMK A01 T02270038  RH  029%=      5-min Rain = 0
KSM2 240400Z 33005KT 23/04 A2991 RMK A01 T02250042  RH  030%=      5-min Rain = 0
KSM2 240401Z 33008KT 22/04 A2991 RMK A01 T02170043  RH  032%=      5-min Rain = 0
KSM2 240402Z 32009KT 21/05 A2991 RMK A01 T02130045  RH  033%=      5-min Rain = 0
KSM2 240403Z 32010KT 21/05 A2991 RMK A01 T02120046  RH  034%=      5-min Rain = 0
KSM2 240404Z 31008KT 21/05 A2991 RMK A01 T02110046  RH  034%=      5-min Rain = 0
KSM2 240405Z 30008KT 21/05 A2991 RMK A01 T02110047  RH  034%=      5-min Rain = 0
KSM2 240406Z 30009KT 21/05 A2991 RMK A01 T02090048  RH  035%=      5-min Rain = 0
KSM2 240407Z 30008KT 21/05 A2992 RMK A01 T02090047  RH  035%=      5-min Rain = 0
KSM2 240408Z 29006KT 21/05 A2991 RMK A01 T02100045  RH  034%=      5-min Rain = 0
KSM2 240409Z 29005KT 21/05 A2991 RMK A01 T02120046  RH  034%=      5-min Rain = 0
KSM2 240410Z 29007KT 21/05 A2992 RMK A01 T02130045  RH  033%=      5-min Rain = 0
KSM2 240411Z 29007KT 21/04 A2992 RMK A01 T02140044  RH  033%=      5-min Rain = 0
KSM2 240412Z 29007KT 22/04 A2991 RMK A01 T02150043  RH  032%=      5-min Rain = 0
KSM2 240413Z 28005KT 22/04 A2992 RMK A01 T02170041  RH  032%=      5-min Rain = 0
KSM2 240414Z 28005KT 22/04 A2991 RMK A01 T02200039  RH  030%=      5-min Rain = 0
KSM2 240415Z 28006KT 22/04 A2991 RMK A01 T02230037  RH  030%=      5-min Rain = 0
KSM2 240416Z 27006KT 23/04 A2991 RMK A01 T02250039  RH  030%=      5-min Rain = 0
KSM2 240417Z 27006KT 23/04 A2991 RMK A01 T02250039  RH  029%=      5-min Rain = 0
KSM2 240418Z 27007KT 23/04 A2991 RMK A01 T02250040  RH  030%=      5-min Rain = 0
KSM2 240419Z 26007KT 22/04 A2991 RMK A01 T02240042  RH  031%=      5-min Rain = 0
KSM2 240420Z 26006KT 22/04 A2991 RMK A01 T02220043  RH  031%=      5-min Rain = 0
KSM2 240421Z 26005KT 22/04 A2992 RMK A01 T02220043  RH  031%=      5-min Rain = 0
KSM2 240422Z 25003KT 22/05 A2992 RMK A01 T02210046  RH  032%=      5-min Rain = 0
KSM2 240423Z 25003KT 22/05 A2992 RMK A01 T02180046  RH  032%=      5-min Rain = 0
KSM2 240424Z 25003KT 22/04 A2992 RMK A01 T02160041  RH  032%=      5-min Rain = 0
KSM2 240425Z 27005KT 22/04 A2992 RMK A01 T02160041  RH  032%=      5-min Rain = 0
KSM2 240426Z 27005KT 22/04 A2992 RMK A01 T02160042  RH  032%=      5-min Rain = 0
KSM2 240427Z 27005KT 22/04 A2992 RMK A01 T02160043  RH  032%=      5-min Rain = 0
KSM2 240428Z 27005KT 22/05 A2992 RMK A01 T02160045  RH  033%=      5-min Rain = 0
KSM2 240429Z 27005KT 22/05 A2992 RMK A01 T02160046  RH  033%=      5-min Rain = 0
KSM2 240430Z 27004KT 22/05 A2992 RMK A01 T02150045  RH  033%=      5-min Rain = 0
KSM2 240431Z 27005KT 22/04 A2992 RMK A01 T02150043  RH  033%=      5-min Rain = 0
KSM2 240432Z 27005KT 22/04 A2992 RMK A01 T02150042  RH  032%=      5-min Rain = 0
KSM2 240433Z 28004KT 22/04 A2992 RMK A01 T02160042  RH  032%=      5-min Rain = 0
KSM2 240434Z 27004KT 22/05 A2992 RMK A01 T02160046  RH  033%=      5-min Rain = 0
KSM2 240435Z 28003KT 21/04 A2992 RMK A01 T02140044  RH  033%=      5-min Rain = 0
KSM2 240436Z 28003KT 21/04 A2992 RMK A01 T02110042  RH  033%=      5-min Rain = 0
KSM2 240437Z 28004KT 21/04 A2992 RMK A01 T02090041  RH  033%=      5-min Rain = 0
KSM2 240438Z 28004KT 21/04 A2992 RMK A01 T02090040  RH  033%=      5-min Rain = 0
KSM2 240439Z 28004KT 21/04 A2992 RMK A01 T02090039  RH  033%=      5-min Rain = 0
KSM2 240440Z 29005KT 21/04 A2992 RMK A01 T02100039  RH  033%=      5-min Rain = 0
KSM2 240441Z 30004KT 21/04 A2992 RMK A01 T02100039  RH  032%=      5-min Rain = 0
KSM2 240442Z 28004KT 21/04 A2992 RMK A01 T02110039  RH  032%=      5-min Rain = 0
KSM2 240443Z 28005KT 21/04 A2992 RMK A01 T02110039  RH  032%=      5-min Rain = 0
KSM2 240444Z 28005KT 21/04 A2992 RMK A01 T02110040  RH  032%=      5-min Rain = 0
KSM2 240445Z 29004KT 21/04 A2992 RMK A01 T02110041  RH  033%=      5-min Rain = 0
KSM2 240446Z 30004KT 21/04 A2992 RMK A01 T02100039  RH  033%=      5-min Rain = 0
KSM2 240447Z 29005KT 21/04 A2992 RMK A01 T02090040  RH  033%=      5-min Rain = 0
KSM2 240448Z 30004KT 21/04 A2992 RMK A01 T02090041  RH  033%=      5-min Rain = 0
KSM2 240449Z 29005KT 21/04 A2992 RMK A01 T02080042  RH  034%=      5-min Rain = 0
KSM2 240450Z 29005KT 21/04 A2992 RMK A01 T02070043  RH  034%=      5-min Rain = 0
KSM2 240451Z 29005KT 21/04 A2992 RMK A01 T02070043  RH  034%=      5-min Rain = 0
KSM2 240452Z 28005KT 21/04 A2992 RMK A01 T02070044  RH  034%=      5-min Rain = 0
KSM2 240453Z 29005KT 21/04 A2992 RMK A01 T02060044  RH  034%=      5-min Rain = 0
KSM2 240454Z 29005KT 21/04 A2992 RMK A01 T02060044  RH  035%=      5-min Rain = 0
KSM2 240455Z 29005KT 21/04 A2992 RMK A01 T02050044  RH  035%=      5-min Rain = 0
KSM2 240456Z 29007KT 21/04 A2992 RMK A01 T02050044  RH  035%=      5-min Rain = 0
KSM2 240457Z 29006KT 21/04 A2992 RMK A01 T02060044  RH  035%=      5-min Rain = 0
KSM2 240458Z 29007KT 21/04 A2992 RMK A01 T02070044  RH  034%=      5-min Rain = 0
KSM2 240459Z 30006KT 21/04 A2992 RMK A01 T02070042  RH  034%=      5-min Rain = 0

Page generated in 0.0722 seconds.